<?xml version="1.0" encoding="UTF-8" standalone="no" ?>
<gpx xmlns="http://www.topografix.com/GPX/1/1" xmlns:xsi="http://www.w3.org/2001/XMLSchema-instance" xsi:schemaLocation="http://www.topografix.com/GPX/1/1 http://www.topografix.com/GPX/1/1/gpx.xsd" version="1.1" creator="VisuGPX - https://www.visugpx.com">
  <metadata>
    <name>Davrinche20104</name>
    <desc><![CDATA[la partie 4 des itinéraires de repérage]]></desc>
  </metadata>
  <trk>
    <name><![CDATA[--Châtelguyon-- OR-5375598:ser-jb04-l]]></name>
    <trkseg>
      <trkpt lat="45.92536" lon="3.06321">
        <ele>454</ele>
        <time>2015-10-19T19:01:57Z</time>
      </trkpt>
      <trkpt lat="45.92523" lon="3.0632">
        <ele>453</ele>
        <time>2015-10-19T19:03:57Z</time>
      </trkpt>
      <trkpt lat="45.9251" lon="3.06289">
        <ele>455</ele>
        <time>2015-10-19T19:05:57Z</time>
      </trkpt>
      <trkpt lat="45.925" lon="3.0625">
        <ele>457</ele>
        <time>2015-10-19T19:07:57Z</time>
      </trkpt>
      <trkpt lat="45.92498" lon="3.06216">
        <ele>459</ele>
        <time>2015-10-19T19:09:57Z</time>
      </trkpt>
      <trkpt lat="45.92501" lon="3.06149">
        <ele>463</ele>
        <time>2015-10-19T19:11:57Z</time>
      </trkpt>
      <trkpt lat="45.925" lon="3.06133">
        <ele>463</ele>
        <time>2015-10-19T19:13:57Z</time>
      </trkpt>
      <trkpt lat="45.92516" lon="3.06129">
        <ele>465</ele>
        <time>2015-10-19T19:15:57Z</time>
      </trkpt>
      <trkpt lat="45.92532" lon="3.06106">
        <ele>467</ele>
        <time>2015-10-19T19:17:57Z</time>
      </trkpt>
      <trkpt lat="45.92548" lon="3.06062">
        <ele>473</ele>
        <time>2015-10-19T19:19:57Z</time>
      </trkpt>
      <trkpt lat="45.92564" lon="3.06021">
        <ele>478</ele>
        <time>2015-10-19T19:21:57Z</time>
      </trkpt>
      <trkpt lat="45.92576" lon="3.05993">
        <ele>482</ele>
        <time>2015-10-19T19:23:57Z</time>
      </trkpt>
      <trkpt lat="45.92582" lon="3.05955">
        <ele>486</ele>
        <time>2015-10-19T19:25:57Z</time>
      </trkpt>
      <trkpt lat="45.92591" lon="3.05871">
        <ele>498</ele>
        <time>2015-10-19T19:27:57Z</time>
      </trkpt>
      <trkpt lat="45.92572" lon="3.05859">
        <ele>498</ele>
        <time>2015-10-19T19:29:57Z</time>
      </trkpt>
      <trkpt lat="45.9255" lon="3.05841">
        <ele>500</ele>
        <time>2015-10-19T19:31:57Z</time>
      </trkpt>
      <trkpt lat="45.92528" lon="3.05826">
        <ele>501</ele>
        <time>2015-10-19T19:33:57Z</time>
      </trkpt>
      <trkpt lat="45.92512" lon="3.05812">
        <ele>503</ele>
        <time>2015-10-19T19:35:57Z</time>
      </trkpt>
      <trkpt lat="45.92494" lon="3.05803">
        <ele>503</ele>
        <time>2015-10-19T19:37:57Z</time>
      </trkpt>
      <trkpt lat="45.92478" lon="3.05796">
        <ele>501</ele>
        <time>2015-10-19T19:39:57Z</time>
      </trkpt>
      <trkpt lat="45.92456" lon="3.05784">
        <ele>499</ele>
        <time>2015-10-19T19:41:57Z</time>
      </trkpt>
      <trkpt lat="45.92435" lon="3.05763">
        <ele>500</ele>
        <time>2015-10-19T19:43:57Z</time>
      </trkpt>
      <trkpt lat="45.92415" lon="3.05744">
        <ele>500</ele>
        <time>2015-10-19T19:45:57Z</time>
      </trkpt>
      <trkpt lat="45.92392" lon="3.05717">
        <ele>502</ele>
        <time>2015-10-19T19:47:57Z</time>
      </trkpt>
      <trkpt lat="45.9235" lon="3.05653">
        <ele>508</ele>
        <time>2015-10-19T19:49:57Z</time>
      </trkpt>
      <trkpt lat="45.92332" lon="3.05634">
        <ele>508</ele>
        <time>2015-10-19T19:51:57Z</time>
      </trkpt>
      <trkpt lat="45.92307" lon="3.05613">
        <ele>508</ele>
        <time>2015-10-19T19:53:57Z</time>
      </trkpt>
      <trkpt lat="45.92262" lon="3.05587">
        <ele>504</ele>
        <time>2015-10-19T19:55:57Z</time>
      </trkpt>
      <trkpt lat="45.92239" lon="3.05565">
        <ele>504</ele>
        <time>2015-10-19T19:57:57Z</time>
      </trkpt>
      <trkpt lat="45.92217" lon="3.05542">
        <ele>503</ele>
        <time>2015-10-19T19:59:57Z</time>
      </trkpt>
      <trkpt lat="45.92207" lon="3.05525">
        <ele>504</ele>
        <time>2015-10-19T20:01:57Z</time>
      </trkpt>
      <trkpt lat="45.92189" lon="3.05503">
        <ele>502</ele>
        <time>2015-10-19T20:03:57Z</time>
      </trkpt>
      <trkpt lat="45.92188" lon="3.05475">
        <ele>508</ele>
        <time>2015-10-19T20:05:57Z</time>
      </trkpt>
      <trkpt lat="45.92181" lon="3.05439">
        <ele>513</ele>
        <time>2015-10-19T20:07:57Z</time>
      </trkpt>
      <trkpt lat="45.92173" lon="3.05413">
        <ele>515</ele>
        <time>2015-10-19T20:09:57Z</time>
      </trkpt>
      <trkpt lat="45.92174" lon="3.05396">
        <ele>519</ele>
        <time>2015-10-19T20:11:57Z</time>
      </trkpt>
      <trkpt lat="45.92176" lon="3.05384">
        <ele>521</ele>
        <time>2015-10-19T20:13:57Z</time>
      </trkpt>
      <trkpt lat="45.92167" lon="3.05353">
        <ele>525</ele>
        <time>2015-10-19T20:15:57Z</time>
      </trkpt>
      <trkpt lat="45.92162" lon="3.05327">
        <ele>528</ele>
        <time>2015-10-19T20:17:57Z</time>
      </trkpt>
      <trkpt lat="45.92151" lon="3.05322">
        <ele>528</ele>
        <time>2015-10-19T20:19:57Z</time>
      </trkpt>
      <trkpt lat="45.92133" lon="3.05324">
        <ele>527</ele>
        <time>2015-10-19T20:21:57Z</time>
      </trkpt>
      <trkpt lat="45.92147" lon="3.05306">
        <ele>530</ele>
        <time>2015-10-19T20:23:57Z</time>
      </trkpt>
      <trkpt lat="45.92154" lon="3.05285">
        <ele>533</ele>
        <time>2015-10-19T20:25:57Z</time>
      </trkpt>
      <trkpt lat="45.92162" lon="3.05263">
        <ele>535</ele>
        <time>2015-10-19T20:27:57Z</time>
      </trkpt>
      <trkpt lat="45.92167" lon="3.05245">
        <ele>538</ele>
        <time>2015-10-19T20:29:57Z</time>
      </trkpt>
      <trkpt lat="45.92179" lon="3.0523">
        <ele>542</ele>
        <time>2015-10-19T20:31:57Z</time>
      </trkpt>
      <trkpt lat="45.92195" lon="3.0522">
        <ele>546</ele>
        <time>2015-10-19T20:33:57Z</time>
      </trkpt>
      <trkpt lat="45.92213" lon="3.05219">
        <ele>550</ele>
        <time>2015-10-19T20:35:57Z</time>
      </trkpt>
      <trkpt lat="45.92229" lon="3.05257">
        <ele>550</ele>
        <time>2015-10-19T20:37:57Z</time>
      </trkpt>
      <trkpt lat="45.92253" lon="3.05318">
        <ele>548</ele>
        <time>2015-10-19T20:39:57Z</time>
      </trkpt>
      <trkpt lat="45.92269" lon="3.05348">
        <ele>548</ele>
        <time>2015-10-19T20:41:57Z</time>
      </trkpt>
      <trkpt lat="45.92321" lon="3.05386">
        <ele>555</ele>
        <time>2015-10-19T20:43:57Z</time>
      </trkpt>
      <trkpt lat="45.92349" lon="3.054">
        <ele>558</ele>
        <time>2015-10-19T20:45:57Z</time>
      </trkpt>
      <trkpt lat="45.92425" lon="3.0543">
        <ele>563</ele>
        <time>2015-10-19T20:47:57Z</time>
      </trkpt>
      <trkpt lat="45.92453" lon="3.05443">
        <ele>563</ele>
        <time>2015-10-19T20:49:57Z</time>
      </trkpt>
      <trkpt lat="45.92491" lon="3.05448">
        <ele>565</ele>
        <time>2015-10-19T20:51:57Z</time>
      </trkpt>
      <trkpt lat="45.92512" lon="3.05447">
        <ele>565</ele>
        <time>2015-10-19T20:53:57Z</time>
      </trkpt>
      <trkpt lat="45.92535" lon="3.05435">
        <ele>565</ele>
        <time>2015-10-19T20:55:57Z</time>
      </trkpt>
      <trkpt lat="45.92589" lon="3.05355">
        <ele>569</ele>
        <time>2015-10-19T20:57:57Z</time>
      </trkpt>
      <trkpt lat="45.92619" lon="3.05332">
        <ele>570</ele>
        <time>2015-10-19T20:59:57Z</time>
      </trkpt>
      <trkpt lat="45.9262" lon="3.05311">
        <ele>571</ele>
        <time>2015-10-19T21:01:57Z</time>
      </trkpt>
      <trkpt lat="45.92617" lon="3.05264">
        <ele>575</ele>
        <time>2015-10-19T21:03:57Z</time>
      </trkpt>
      <trkpt lat="45.9262" lon="3.05231">
        <ele>577</ele>
        <time>2015-10-19T21:05:57Z</time>
      </trkpt>
      <trkpt lat="45.92621" lon="3.05192">
        <ele>580</ele>
        <time>2015-10-19T21:07:57Z</time>
      </trkpt>
      <trkpt lat="45.92651" lon="3.05212">
        <ele>579</ele>
        <time>2015-10-19T21:09:57Z</time>
      </trkpt>
      <trkpt lat="45.92681" lon="3.05236">
        <ele>579</ele>
        <time>2015-10-19T21:11:57Z</time>
      </trkpt>
      <trkpt lat="45.927" lon="3.05248">
        <ele>580</ele>
        <time>2015-10-19T21:13:57Z</time>
      </trkpt>
      <trkpt lat="45.92722" lon="3.05242">
        <ele>583</ele>
        <time>2015-10-19T21:15:57Z</time>
      </trkpt>
      <trkpt lat="45.92742" lon="3.05236">
        <ele>585</ele>
        <time>2015-10-19T21:17:57Z</time>
      </trkpt>
      <trkpt lat="45.92776" lon="3.05183">
        <ele>587</ele>
        <time>2015-10-19T21:19:57Z</time>
      </trkpt>
      <trkpt lat="45.92774" lon="3.05147">
        <ele>586</ele>
        <time>2015-10-19T21:21:57Z</time>
      </trkpt>
      <trkpt lat="45.92778" lon="3.05121">
        <ele>584</ele>
        <time>2015-10-19T21:23:57Z</time>
      </trkpt>
      <trkpt lat="45.92793" lon="3.05102">
        <ele>581</ele>
        <time>2015-10-19T21:25:57Z</time>
      </trkpt>
      <trkpt lat="45.92826" lon="3.05071">
        <ele>572</ele>
        <time>2015-10-19T21:27:57Z</time>
      </trkpt>
      <trkpt lat="45.92829" lon="3.05051">
        <ele>567</ele>
        <time>2015-10-19T21:29:57Z</time>
      </trkpt>
      <trkpt lat="45.92847" lon="3.05022">
        <ele>556</ele>
        <time>2015-10-19T21:31:57Z</time>
      </trkpt>
      <trkpt lat="45.9287" lon="3.05002">
        <ele>545</ele>
        <time>2015-10-19T21:33:57Z</time>
      </trkpt>
      <trkpt lat="45.92865" lon="3.04976">
        <ele>542</ele>
        <time>2015-10-19T21:35:57Z</time>
      </trkpt>
      <trkpt lat="45.92847" lon="3.04955">
        <ele>544</ele>
        <time>2015-10-19T21:37:57Z</time>
      </trkpt>
      <trkpt lat="45.92823" lon="3.0493">
        <ele>545</ele>
        <time>2015-10-19T21:39:57Z</time>
      </trkpt>
      <trkpt lat="45.92806" lon="3.04914">
        <ele>546</ele>
        <time>2015-10-19T21:41:57Z</time>
      </trkpt>
      <trkpt lat="45.92776" lon="3.04906">
        <ele>552</ele>
        <time>2015-10-19T21:43:57Z</time>
      </trkpt>
      <trkpt lat="45.9275" lon="3.04901">
        <ele>558</ele>
        <time>2015-10-19T21:45:57Z</time>
      </trkpt>
      <trkpt lat="45.92765" lon="3.04881">
        <ele>555</ele>
        <time>2015-10-19T21:47:57Z</time>
      </trkpt>
      <trkpt lat="45.92749" lon="3.04874">
        <ele>559</ele>
        <time>2015-10-19T21:49:57Z</time>
      </trkpt>
      <trkpt lat="45.92756" lon="3.04852">
        <ele>558</ele>
        <time>2015-10-19T21:51:57Z</time>
      </trkpt>
      <trkpt lat="45.92767" lon="3.04825">
        <ele>557</ele>
        <time>2015-10-19T21:53:57Z</time>
      </trkpt>
      <trkpt lat="45.92773" lon="3.04774">
        <ele>563</ele>
        <time>2015-10-19T21:55:57Z</time>
      </trkpt>
      <trkpt lat="45.92771" lon="3.04684">
        <ele>573</ele>
        <time>2015-10-19T21:57:57Z</time>
      </trkpt>
      <trkpt lat="45.92754" lon="3.04613">
        <ele>580</ele>
        <time>2015-10-19T21:59:57Z</time>
      </trkpt>
      <trkpt lat="45.9274" lon="3.04543">
        <ele>587</ele>
        <time>2015-10-19T22:01:57Z</time>
      </trkpt>
      <trkpt lat="45.9273" lon="3.04493">
        <ele>593</ele>
        <time>2015-10-19T22:03:57Z</time>
      </trkpt>
      <trkpt lat="45.92726" lon="3.04542">
        <ele>592</ele>
        <time>2015-10-19T22:05:57Z</time>
      </trkpt>
      <trkpt lat="45.92725" lon="3.04603">
        <ele>590</ele>
        <time>2015-10-19T22:07:57Z</time>
      </trkpt>
      <trkpt lat="45.92734" lon="3.04635">
        <ele>585</ele>
        <time>2015-10-19T22:09:57Z</time>
      </trkpt>
      <trkpt lat="45.92732" lon="3.04672">
        <ele>583</ele>
        <time>2015-10-19T22:11:57Z</time>
      </trkpt>
      <trkpt lat="45.92726" lon="3.04728">
        <ele>578</ele>
        <time>2015-10-19T22:13:57Z</time>
      </trkpt>
      <trkpt lat="45.92715" lon="3.04745">
        <ele>578</ele>
        <time>2015-10-19T22:15:57Z</time>
      </trkpt>
      <trkpt lat="45.92698" lon="3.04741">
        <ele>581</ele>
        <time>2015-10-19T22:17:57Z</time>
      </trkpt>
      <trkpt lat="45.92685" lon="3.04735">
        <ele>584</ele>
        <time>2015-10-19T22:19:57Z</time>
      </trkpt>
      <trkpt lat="45.92664" lon="3.04739">
        <ele>587</ele>
        <time>2015-10-19T22:21:57Z</time>
      </trkpt>
      <trkpt lat="45.92645" lon="3.04745">
        <ele>585</ele>
        <time>2015-10-19T22:23:57Z</time>
      </trkpt>
      <trkpt lat="45.9263" lon="3.04759">
        <ele>582</ele>
        <time>2015-10-19T22:25:57Z</time>
      </trkpt>
      <trkpt lat="45.92614" lon="3.04792">
        <ele>576</ele>
        <time>2015-10-19T22:27:57Z</time>
      </trkpt>
      <trkpt lat="45.92603" lon="3.0479">
        <ele>577</ele>
        <time>2015-10-19T22:29:57Z</time>
      </trkpt>
      <trkpt lat="45.92583" lon="3.04766">
        <ele>581</ele>
        <time>2015-10-19T22:31:57Z</time>
      </trkpt>
      <trkpt lat="45.92556" lon="3.04752">
        <ele>582</ele>
        <time>2015-10-19T22:33:57Z</time>
      </trkpt>
      <trkpt lat="45.92524" lon="3.04737">
        <ele>583</ele>
        <time>2015-10-19T22:35:57Z</time>
      </trkpt>
      <trkpt lat="45.92493" lon="3.04736">
        <ele>581</ele>
        <time>2015-10-19T22:37:57Z</time>
      </trkpt>
      <trkpt lat="45.92469" lon="3.04727">
        <ele>580</ele>
        <time>2015-10-19T22:39:57Z</time>
      </trkpt>
      <trkpt lat="45.92435" lon="3.04694">
        <ele>581</ele>
        <time>2015-10-19T22:41:57Z</time>
      </trkpt>
      <trkpt lat="45.92413" lon="3.04673">
        <ele>582</ele>
        <time>2015-10-19T22:43:57Z</time>
      </trkpt>
      <trkpt lat="45.92408" lon="3.0464">
        <ele>587</ele>
        <time>2015-10-19T22:45:57Z</time>
      </trkpt>
      <trkpt lat="45.92409" lon="3.04613">
        <ele>591</ele>
        <time>2015-10-19T22:47:57Z</time>
      </trkpt>
      <trkpt lat="45.92412" lon="3.04598">
        <ele>594</ele>
        <time>2015-10-19T22:49:57Z</time>
      </trkpt>
      <trkpt lat="45.92412" lon="3.04574">
        <ele>597</ele>
        <time>2015-10-19T22:51:57Z</time>
      </trkpt>
      <trkpt lat="45.92419" lon="3.04544">
        <ele>600</ele>
        <time>2015-10-19T22:53:57Z</time>
      </trkpt>
      <trkpt lat="45.92423" lon="3.04497">
        <ele>605</ele>
        <time>2015-10-19T22:55:57Z</time>
      </trkpt>
      <trkpt lat="45.92412" lon="3.0448">
        <ele>608</ele>
        <time>2015-10-19T22:57:57Z</time>
      </trkpt>
      <trkpt lat="45.92396" lon="3.04481">
        <ele>609</ele>
        <time>2015-10-19T22:59:57Z</time>
      </trkpt>
      <trkpt lat="45.92377" lon="3.04493">
        <ele>609</ele>
        <time>2015-10-19T23:01:57Z</time>
      </trkpt>
      <trkpt lat="45.92358" lon="3.04508">
        <ele>609</ele>
        <time>2015-10-19T23:03:57Z</time>
      </trkpt>
      <trkpt lat="45.92342" lon="3.04521">
        <ele>608</ele>
        <time>2015-10-19T23:05:57Z</time>
      </trkpt>
      <trkpt lat="45.92325" lon="3.04526">
        <ele>608</ele>
        <time>2015-10-19T23:07:57Z</time>
      </trkpt>
      <trkpt lat="45.92306" lon="3.04518">
        <ele>609</ele>
        <time>2015-10-19T23:09:57Z</time>
      </trkpt>
      <trkpt lat="45.92292" lon="3.04498">
        <ele>612</ele>
        <time>2015-10-19T23:11:57Z</time>
      </trkpt>
      <trkpt lat="45.92278" lon="3.04488">
        <ele>613</ele>
        <time>2015-10-19T23:13:57Z</time>
      </trkpt>
      <trkpt lat="45.92262" lon="3.04473">
        <ele>614</ele>
        <time>2015-10-19T23:15:57Z</time>
      </trkpt>
      <trkpt lat="45.92247" lon="3.04439">
        <ele>618</ele>
        <time>2015-10-19T23:17:57Z</time>
      </trkpt>
      <trkpt lat="45.92241" lon="3.04413">
        <ele>619</ele>
        <time>2015-10-19T23:19:57Z</time>
      </trkpt>
      <trkpt lat="45.92253" lon="3.04384">
        <ele>622</ele>
        <time>2015-10-19T23:21:57Z</time>
      </trkpt>
      <trkpt lat="45.92267" lon="3.04344">
        <ele>624</ele>
        <time>2015-10-19T23:23:57Z</time>
      </trkpt>
      <trkpt lat="45.92267" lon="3.04303">
        <ele>625</ele>
        <time>2015-10-19T23:25:57Z</time>
      </trkpt>
      <trkpt lat="45.92268" lon="3.04235">
        <ele>627</ele>
        <time>2015-10-19T23:27:57Z</time>
      </trkpt>
      <trkpt lat="45.92265" lon="3.04177">
        <ele>630</ele>
        <time>2015-10-19T23:29:57Z</time>
      </trkpt>
      <trkpt lat="45.92252" lon="3.03782">
        <ele>671</ele>
        <time>2015-10-19T23:31:57Z</time>
      </trkpt>
      <trkpt lat="45.92249" lon="3.03703">
        <ele>676</ele>
        <time>2015-10-19T23:33:57Z</time>
      </trkpt>
      <trkpt lat="45.92277" lon="3.03697">
        <ele>675</ele>
        <time>2015-10-19T23:35:57Z</time>
      </trkpt>
      <trkpt lat="45.92294" lon="3.03698">
        <ele>674</ele>
        <time>2015-10-19T23:37:57Z</time>
      </trkpt>
      <trkpt lat="45.92306" lon="3.03677">
        <ele>673</ele>
        <time>2015-10-19T23:39:57Z</time>
      </trkpt>
      <trkpt lat="45.92328" lon="3.03648">
        <ele>672</ele>
        <time>2015-10-19T23:41:57Z</time>
      </trkpt>
      <trkpt lat="45.9234" lon="3.03624">
        <ele>671</ele>
        <time>2015-10-19T23:43:57Z</time>
      </trkpt>
      <trkpt lat="45.92364" lon="3.03561">
        <ele>669</ele>
        <time>2015-10-19T23:45:57Z</time>
      </trkpt>
      <trkpt lat="45.92372" lon="3.03516">
        <ele>668</ele>
        <time>2015-10-19T23:47:57Z</time>
      </trkpt>
      <trkpt lat="45.92371" lon="3.0348">
        <ele>667</ele>
        <time>2015-10-19T23:49:57Z</time>
      </trkpt>
      <trkpt lat="45.92362" lon="3.03461">
        <ele>667</ele>
        <time>2015-10-19T23:51:57Z</time>
      </trkpt>
      <trkpt lat="45.92351" lon="3.03428">
        <ele>665</ele>
        <time>2015-10-19T23:53:57Z</time>
      </trkpt>
      <trkpt lat="45.9235" lon="3.03404">
        <ele>664</ele>
        <time>2015-10-19T23:55:57Z</time>
      </trkpt>
      <trkpt lat="45.92356" lon="3.03345">
        <ele>661</ele>
        <time>2015-10-19T23:57:57Z</time>
      </trkpt>
      <trkpt lat="45.92371" lon="3.03317">
        <ele>660</ele>
        <time>2015-10-19T23:59:57Z</time>
      </trkpt>
      <trkpt lat="45.92386" lon="3.03307">
        <ele>660</ele>
        <time>2015-10-20T00:01:57Z</time>
      </trkpt>
      <trkpt lat="45.92397" lon="3.03298">
        <ele>660</ele>
        <time>2015-10-20T00:03:57Z</time>
      </trkpt>
      <trkpt lat="45.92411" lon="3.03285">
        <ele>660</ele>
        <time>2015-10-20T00:05:57Z</time>
      </trkpt>
      <trkpt lat="45.92424" lon="3.03254">
        <ele>660</ele>
        <time>2015-10-20T00:07:57Z</time>
      </trkpt>
      <trkpt lat="45.92445" lon="3.03223">
        <ele>660</ele>
        <time>2015-10-20T00:09:57Z</time>
      </trkpt>
      <trkpt lat="45.92461" lon="3.03193">
        <ele>661</ele>
        <time>2015-10-20T00:11:57Z</time>
      </trkpt>
      <trkpt lat="45.92471" lon="3.03185">
        <ele>662</ele>
        <time>2015-10-20T00:13:57Z</time>
      </trkpt>
      <trkpt lat="45.92484" lon="3.03152">
        <ele>663</ele>
        <time>2015-10-20T00:15:57Z</time>
      </trkpt>
      <trkpt lat="45.92505" lon="3.03116">
        <ele>664</ele>
        <time>2015-10-20T00:17:57Z</time>
      </trkpt>
      <trkpt lat="45.92517" lon="3.031">
        <ele>665</ele>
        <time>2015-10-20T00:19:57Z</time>
      </trkpt>
      <trkpt lat="45.92533" lon="3.03088">
        <ele>665</ele>
        <time>2015-10-20T00:21:57Z</time>
      </trkpt>
      <trkpt lat="45.92542" lon="3.02991">
        <ele>667</ele>
        <time>2015-10-20T00:23:57Z</time>
      </trkpt>
      <trkpt lat="45.92547" lon="3.02949">
        <ele>667</ele>
        <time>2015-10-20T00:25:57Z</time>
      </trkpt>
      <trkpt lat="45.92545" lon="3.02911">
        <ele>667</ele>
        <time>2015-10-20T00:27:57Z</time>
      </trkpt>
      <trkpt lat="45.9253" lon="3.02793">
        <ele>668</ele>
        <time>2015-10-20T00:29:57Z</time>
      </trkpt>
      <trkpt lat="45.92527" lon="3.02755">
        <ele>668</ele>
        <time>2015-10-20T00:31:57Z</time>
      </trkpt>
      <trkpt lat="45.92526" lon="3.02668">
        <ele>667</ele>
        <time>2015-10-20T00:33:57Z</time>
      </trkpt>
      <trkpt lat="45.92529" lon="3.02621">
        <ele>669</ele>
        <time>2015-10-20T00:35:57Z</time>
      </trkpt>
      <trkpt lat="45.92536" lon="3.02568">
        <ele>671</ele>
        <time>2015-10-20T00:37:57Z</time>
      </trkpt>
      <trkpt lat="45.92541" lon="3.02529">
        <ele>673</ele>
        <time>2015-10-20T00:39:57Z</time>
      </trkpt>
      <trkpt lat="45.92547" lon="3.02501">
        <ele>675</ele>
        <time>2015-10-20T00:41:57Z</time>
      </trkpt>
      <trkpt lat="45.92543" lon="3.0246">
        <ele>677</ele>
        <time>2015-10-20T00:43:57Z</time>
      </trkpt>
      <trkpt lat="45.92541" lon="3.02423">
        <ele>680</ele>
        <time>2015-10-20T00:45:57Z</time>
      </trkpt>
      <trkpt lat="45.92538" lon="3.02376">
        <ele>682</ele>
        <time>2015-10-20T00:47:57Z</time>
      </trkpt>
      <trkpt lat="45.92528" lon="3.02349">
        <ele>683</ele>
        <time>2015-10-20T00:49:57Z</time>
      </trkpt>
      <trkpt lat="45.92511" lon="3.02329">
        <ele>683</ele>
        <time>2015-10-20T00:51:57Z</time>
      </trkpt>
      <trkpt lat="45.92499" lon="3.02295">
        <ele>685</ele>
        <time>2015-10-20T00:53:57Z</time>
      </trkpt>
      <trkpt lat="45.92497" lon="3.02268">
        <ele>687</ele>
        <time>2015-10-20T00:55:57Z</time>
      </trkpt>
      <trkpt lat="45.92503" lon="3.02236">
        <ele>689</ele>
        <time>2015-10-20T00:57:57Z</time>
      </trkpt>
      <trkpt lat="45.92506" lon="3.0218">
        <ele>689</ele>
        <time>2015-10-20T00:59:57Z</time>
      </trkpt>
      <trkpt lat="45.92501" lon="3.02144">
        <ele>688</ele>
        <time>2015-10-20T01:01:57Z</time>
      </trkpt>
      <trkpt lat="45.92496" lon="3.02107">
        <ele>688</ele>
        <time>2015-10-20T01:03:57Z</time>
      </trkpt>
      <trkpt lat="45.92489" lon="3.02076">
        <ele>688</ele>
        <time>2015-10-20T01:05:57Z</time>
      </trkpt>
      <trkpt lat="45.92482" lon="3.02045">
        <ele>688</ele>
        <time>2015-10-20T01:07:57Z</time>
      </trkpt>
      <trkpt lat="45.92478" lon="3.02015">
        <ele>688</ele>
        <time>2015-10-20T01:09:57Z</time>
      </trkpt>
      <trkpt lat="45.9247" lon="3.02003">
        <ele>687</ele>
        <time>2015-10-20T01:11:57Z</time>
      </trkpt>
      <trkpt lat="45.92451" lon="3.01954">
        <ele>688</ele>
        <time>2015-10-20T01:13:57Z</time>
      </trkpt>
      <trkpt lat="45.92436" lon="3.01925">
        <ele>688</ele>
        <time>2015-10-20T01:15:57Z</time>
      </trkpt>
      <trkpt lat="45.92423" lon="3.01904">
        <ele>687</ele>
        <time>2015-10-20T01:17:57Z</time>
      </trkpt>
      <trkpt lat="45.92402" lon="3.0185">
        <ele>687</ele>
        <time>2015-10-20T01:19:57Z</time>
      </trkpt>
      <trkpt lat="45.92395" lon="3.01826">
        <ele>687</ele>
        <time>2015-10-20T01:21:57Z</time>
      </trkpt>
      <trkpt lat="45.92389" lon="3.01785">
        <ele>687</ele>
        <time>2015-10-20T01:23:57Z</time>
      </trkpt>
      <trkpt lat="45.92385" lon="3.01768">
        <ele>687</ele>
        <time>2015-10-20T01:25:57Z</time>
      </trkpt>
      <trkpt lat="45.92376" lon="3.01739">
        <ele>686</ele>
        <time>2015-10-20T01:27:57Z</time>
      </trkpt>
      <trkpt lat="45.9237" lon="3.01715">
        <ele>686</ele>
        <time>2015-10-20T01:29:57Z</time>
      </trkpt>
      <trkpt lat="45.92364" lon="3.01687">
        <ele>686</ele>
        <time>2015-10-20T01:31:57Z</time>
      </trkpt>
      <trkpt lat="45.92363" lon="3.01641">
        <ele>686</ele>
        <time>2015-10-20T01:33:57Z</time>
      </trkpt>
      <trkpt lat="45.9237" lon="3.01618">
        <ele>687</ele>
        <time>2015-10-20T01:35:57Z</time>
      </trkpt>
      <trkpt lat="45.9237" lon="3.01593">
        <ele>687</ele>
        <time>2015-10-20T01:37:57Z</time>
      </trkpt>
      <trkpt lat="45.92377" lon="3.01554">
        <ele>687</ele>
        <time>2015-10-20T01:39:57Z</time>
      </trkpt>
      <trkpt lat="45.92382" lon="3.01512">
        <ele>687</ele>
        <time>2015-10-20T01:41:57Z</time>
      </trkpt>
      <trkpt lat="45.92382" lon="3.01468">
        <ele>686</ele>
        <time>2015-10-20T01:43:57Z</time>
      </trkpt>
      <trkpt lat="45.92384" lon="3.01434">
        <ele>686</ele>
        <time>2015-10-20T01:45:57Z</time>
      </trkpt>
      <trkpt lat="45.92391" lon="3.01385">
        <ele>686</ele>
        <time>2015-10-20T01:47:57Z</time>
      </trkpt>
      <trkpt lat="45.92392" lon="3.01351">
        <ele>686</ele>
        <time>2015-10-20T01:49:57Z</time>
      </trkpt>
      <trkpt lat="45.92394" lon="3.0133">
        <ele>686</ele>
        <time>2015-10-20T01:51:57Z</time>
      </trkpt>
      <trkpt lat="45.92392" lon="3.01302">
        <ele>687</ele>
        <time>2015-10-20T01:53:57Z</time>
      </trkpt>
      <trkpt lat="45.92384" lon="3.01286">
        <ele>687</ele>
        <time>2015-10-20T01:55:57Z</time>
      </trkpt>
      <trkpt lat="45.92368" lon="3.01268">
        <ele>686</ele>
        <time>2015-10-20T01:57:57Z</time>
      </trkpt>
      <trkpt lat="45.92362" lon="3.01248">
        <ele>687</ele>
        <time>2015-10-20T01:59:57Z</time>
      </trkpt>
      <trkpt lat="45.92349" lon="3.01225">
        <ele>687</ele>
        <time>2015-10-20T02:01:57Z</time>
      </trkpt>
      <trkpt lat="45.92335" lon="3.01203">
        <ele>688</ele>
        <time>2015-10-20T02:03:57Z</time>
      </trkpt>
      <trkpt lat="45.92325" lon="3.01188">
        <ele>689</ele>
        <time>2015-10-20T02:05:57Z</time>
      </trkpt>
      <trkpt lat="45.92309" lon="3.01168">
        <ele>690</ele>
        <time>2015-10-20T02:07:57Z</time>
      </trkpt>
      <trkpt lat="45.923" lon="3.01156">
        <ele>690</ele>
        <time>2015-10-20T02:09:57Z</time>
      </trkpt>
      <trkpt lat="45.92292" lon="3.01136">
        <ele>691</ele>
        <time>2015-10-20T02:11:57Z</time>
      </trkpt>
      <trkpt lat="45.9229" lon="3.01117">
        <ele>691</ele>
        <time>2015-10-20T02:13:57Z</time>
      </trkpt>
      <trkpt lat="45.9231" lon="3.01119">
        <ele>692</ele>
        <time>2015-10-20T02:15:57Z</time>
      </trkpt>
      <trkpt lat="45.9233" lon="3.01117">
        <ele>692</ele>
        <time>2015-10-20T02:17:57Z</time>
      </trkpt>
      <trkpt lat="45.92357" lon="3.01108">
        <ele>693</ele>
        <time>2015-10-20T02:19:57Z</time>
      </trkpt>
      <trkpt lat="45.92373" lon="3.01101">
        <ele>694</ele>
        <time>2015-10-20T02:21:57Z</time>
      </trkpt>
      <trkpt lat="45.92418" lon="3.01083">
        <ele>696</ele>
        <time>2015-10-20T02:23:57Z</time>
      </trkpt>
      <trkpt lat="45.92443" lon="3.01064">
        <ele>697</ele>
        <time>2015-10-20T02:25:57Z</time>
      </trkpt>
      <trkpt lat="45.92452" lon="3.01051">
        <ele>697</ele>
        <time>2015-10-20T02:27:57Z</time>
      </trkpt>
      <trkpt lat="45.92459" lon="3.01035">
        <ele>697</ele>
        <time>2015-10-20T02:29:57Z</time>
      </trkpt>
      <trkpt lat="45.92461" lon="3.0101">
        <ele>697</ele>
        <time>2015-10-20T02:31:57Z</time>
      </trkpt>
      <trkpt lat="45.92457" lon="3.00996">
        <ele>697</ele>
        <time>2015-10-20T02:33:57Z</time>
      </trkpt>
      <trkpt lat="45.92449" lon="3.0098">
        <ele>697</ele>
        <time>2015-10-20T02:35:57Z</time>
      </trkpt>
      <trkpt lat="45.92438" lon="3.00956">
        <ele>697</ele>
        <time>2015-10-20T02:37:57Z</time>
      </trkpt>
      <trkpt lat="45.92442" lon="3.00933">
        <ele>697</ele>
        <time>2015-10-20T02:39:57Z</time>
      </trkpt>
      <trkpt lat="45.92456" lon="3.00901">
        <ele>697</ele>
        <time>2015-10-20T02:41:57Z</time>
      </trkpt>
      <trkpt lat="45.92477" lon="3.00846">
        <ele>698</ele>
        <time>2015-10-20T02:43:57Z</time>
      </trkpt>
      <trkpt lat="45.925" lon="3.00802">
        <ele>699</ele>
        <time>2015-10-20T02:45:57Z</time>
      </trkpt>
      <trkpt lat="45.92515" lon="3.00766">
        <ele>701</ele>
        <time>2015-10-20T02:47:57Z</time>
      </trkpt>
      <trkpt lat="45.92532" lon="3.00738">
        <ele>703</ele>
        <time>2015-10-20T02:49:57Z</time>
      </trkpt>
      <trkpt lat="45.92547" lon="3.00708">
        <ele>705</ele>
        <time>2015-10-20T02:51:57Z</time>
      </trkpt>
      <trkpt lat="45.92556" lon="3.00676">
        <ele>707</ele>
        <time>2015-10-20T02:53:57Z</time>
      </trkpt>
      <trkpt lat="45.92556" lon="3.00632">
        <ele>707</ele>
        <time>2015-10-20T02:55:57Z</time>
      </trkpt>
      <trkpt lat="45.92553" lon="3.00602">
        <ele>707</ele>
        <time>2015-10-20T02:57:57Z</time>
      </trkpt>
      <trkpt lat="45.92552" lon="3.00577">
        <ele>707</ele>
        <time>2015-10-20T02:59:57Z</time>
      </trkpt>
      <trkpt lat="45.92553" lon="3.00534">
        <ele>708</ele>
        <time>2015-10-20T03:01:57Z</time>
      </trkpt>
      <trkpt lat="45.92552" lon="3.00511">
        <ele>708</ele>
        <time>2015-10-20T03:03:57Z</time>
      </trkpt>
      <trkpt lat="45.92548" lon="3.00491">
        <ele>708</ele>
        <time>2015-10-20T03:05:57Z</time>
      </trkpt>
      <trkpt lat="45.92544" lon="3.00476">
        <ele>707</ele>
        <time>2015-10-20T03:07:57Z</time>
      </trkpt>
      <trkpt lat="45.92551" lon="3.0044">
        <ele>707</ele>
        <time>2015-10-20T03:09:57Z</time>
      </trkpt>
      <trkpt lat="45.92539" lon="3.00433">
        <ele>706</ele>
        <time>2015-10-20T03:11:57Z</time>
      </trkpt>
      <trkpt lat="45.9252" lon="3.0043">
        <ele>705</ele>
        <time>2015-10-20T03:13:57Z</time>
      </trkpt>
      <trkpt lat="45.92504" lon="3.00418">
        <ele>704</ele>
        <time>2015-10-20T03:15:57Z</time>
      </trkpt>
      <trkpt lat="45.92489" lon="3.00392">
        <ele>703</ele>
        <time>2015-10-20T03:17:57Z</time>
      </trkpt>
      <trkpt lat="45.92468" lon="3.00354">
        <ele>700</ele>
        <time>2015-10-20T03:19:57Z</time>
      </trkpt>
      <trkpt lat="45.92449" lon="3.0033">
        <ele>697</ele>
        <time>2015-10-20T03:21:57Z</time>
      </trkpt>
      <trkpt lat="45.92434" lon="3.00311">
        <ele>694</ele>
        <time>2015-10-20T03:23:57Z</time>
      </trkpt>
      <trkpt lat="45.92411" lon="3.00293">
        <ele>690</ele>
        <time>2015-10-20T03:25:57Z</time>
      </trkpt>
      <trkpt lat="45.92388" lon="3.00274">
        <ele>687</ele>
        <time>2015-10-20T03:27:57Z</time>
      </trkpt>
      <trkpt lat="45.92368" lon="3.00269">
        <ele>684</ele>
        <time>2015-10-20T03:29:57Z</time>
      </trkpt>
      <trkpt lat="45.92345" lon="3.00259">
        <ele>681</ele>
        <time>2015-10-20T03:31:57Z</time>
      </trkpt>
      <trkpt lat="45.92305" lon="3.00251">
        <ele>677</ele>
        <time>2015-10-20T03:33:57Z</time>
      </trkpt>
      <trkpt lat="45.92282" lon="3.00241">
        <ele>675</ele>
        <time>2015-10-20T03:35:57Z</time>
      </trkpt>
      <trkpt lat="45.92271" lon="3.00232">
        <ele>674</ele>
        <time>2015-10-20T03:37:57Z</time>
      </trkpt>
      <trkpt lat="45.92265" lon="3.00202">
        <ele>674</ele>
        <time>2015-10-20T03:39:57Z</time>
      </trkpt>
      <trkpt lat="45.92253" lon="3.00177">
        <ele>674</ele>
        <time>2015-10-20T03:41:57Z</time>
      </trkpt>
      <trkpt lat="45.92247" lon="3.0016">
        <ele>674</ele>
        <time>2015-10-20T03:43:57Z</time>
      </trkpt>
      <trkpt lat="45.9225" lon="3.00131">
        <ele>674</ele>
        <time>2015-10-20T03:45:57Z</time>
      </trkpt>
      <trkpt lat="45.92242" lon="3.00068">
        <ele>674</ele>
        <time>2015-10-20T03:47:57Z</time>
      </trkpt>
      <trkpt lat="45.92244" lon="2.99981">
        <ele>675</ele>
        <time>2015-10-20T03:49:57Z</time>
      </trkpt>
      <trkpt lat="45.92249" lon="2.99945">
        <ele>676</ele>
        <time>2015-10-20T03:51:57Z</time>
      </trkpt>
      <trkpt lat="45.92257" lon="2.99874">
        <ele>680</ele>
        <time>2015-10-20T03:53:57Z</time>
      </trkpt>
      <trkpt lat="45.92273" lon="2.9985">
        <ele>683</ele>
        <time>2015-10-20T03:55:57Z</time>
      </trkpt>
      <trkpt lat="45.92289" lon="2.99834">
        <ele>685</ele>
        <time>2015-10-20T03:57:57Z</time>
      </trkpt>
      <trkpt lat="45.92334" lon="2.99777">
        <ele>691</ele>
        <time>2015-10-20T03:59:57Z</time>
      </trkpt>
      <trkpt lat="45.92373" lon="2.99731">
        <ele>694</ele>
        <time>2015-10-20T04:01:57Z</time>
      </trkpt>
      <trkpt lat="45.92391" lon="2.99711">
        <ele>696</ele>
        <time>2015-10-20T04:03:57Z</time>
      </trkpt>
      <trkpt lat="45.92409" lon="2.9969">
        <ele>698</ele>
        <time>2015-10-20T04:05:57Z</time>
      </trkpt>
      <trkpt lat="45.92422" lon="2.99645">
        <ele>700</ele>
        <time>2015-10-20T04:07:57Z</time>
      </trkpt>
      <trkpt lat="45.92432" lon="2.99604">
        <ele>701</ele>
        <time>2015-10-20T04:09:57Z</time>
      </trkpt>
      <trkpt lat="45.92445" lon="2.99553">
        <ele>702</ele>
        <time>2015-10-20T04:11:57Z</time>
      </trkpt>
      <trkpt lat="45.92447" lon="2.99519">
        <ele>703</ele>
        <time>2015-10-20T04:13:57Z</time>
      </trkpt>
      <trkpt lat="45.92446" lon="2.99468">
        <ele>705</ele>
        <time>2015-10-20T04:15:57Z</time>
      </trkpt>
      <trkpt lat="45.92446" lon="2.99392">
        <ele>708</ele>
        <time>2015-10-20T04:17:57Z</time>
      </trkpt>
      <trkpt lat="45.92444" lon="2.99355">
        <ele>709</ele>
        <time>2015-10-20T04:19:57Z</time>
      </trkpt>
      <trkpt lat="45.92444" lon="2.99268">
        <ele>713</ele>
        <time>2015-10-20T04:21:57Z</time>
      </trkpt>
      <trkpt lat="45.9244" lon="2.99235">
        <ele>714</ele>
        <time>2015-10-20T04:23:57Z</time>
      </trkpt>
      <trkpt lat="45.9243" lon="2.99176">
        <ele>715</ele>
        <time>2015-10-20T04:25:57Z</time>
      </trkpt>
      <trkpt lat="45.92425" lon="2.99112">
        <ele>717</ele>
        <time>2015-10-20T04:27:57Z</time>
      </trkpt>
      <trkpt lat="45.92421" lon="2.99075">
        <ele>719</ele>
        <time>2015-10-20T04:29:57Z</time>
      </trkpt>
      <trkpt lat="45.92426" lon="2.99022">
        <ele>721</ele>
        <time>2015-10-20T04:31:57Z</time>
      </trkpt>
      <trkpt lat="45.92433" lon="2.98975">
        <ele>724</ele>
        <time>2015-10-20T04:33:57Z</time>
      </trkpt>
      <trkpt lat="45.9245" lon="2.98865">
        <ele>730</ele>
        <time>2015-10-20T04:35:57Z</time>
      </trkpt>
      <trkpt lat="45.92453" lon="2.98811">
        <ele>732</ele>
        <time>2015-10-20T04:37:57Z</time>
      </trkpt>
      <trkpt lat="45.9246" lon="2.98765">
        <ele>732</ele>
        <time>2015-10-20T04:39:57Z</time>
      </trkpt>
      <trkpt lat="45.92469" lon="2.98691">
        <ele>734</ele>
        <time>2015-10-20T04:41:57Z</time>
      </trkpt>
      <trkpt lat="45.92475" lon="2.98618">
        <ele>735</ele>
        <time>2015-10-20T04:43:57Z</time>
      </trkpt>
      <trkpt lat="45.9247" lon="2.98491">
        <ele>738</ele>
        <time>2015-10-20T04:45:57Z</time>
      </trkpt>
      <trkpt lat="45.92477" lon="2.98411">
        <ele>743</ele>
        <time>2015-10-20T04:47:57Z</time>
      </trkpt>
      <trkpt lat="45.92476" lon="2.98309">
        <ele>746</ele>
        <time>2015-10-20T04:49:57Z</time>
      </trkpt>
      <trkpt lat="45.92483" lon="2.98236">
        <ele>748</ele>
        <time>2015-10-20T04:51:57Z</time>
      </trkpt>
      <trkpt lat="45.92487" lon="2.98197">
        <ele>749</ele>
        <time>2015-10-20T04:53:57Z</time>
      </trkpt>
      <trkpt lat="45.92473" lon="2.98192">
        <ele>750</ele>
        <time>2015-10-20T04:55:57Z</time>
      </trkpt>
      <trkpt lat="45.9246" lon="2.98184">
        <ele>750</ele>
        <time>2015-10-20T04:57:57Z</time>
      </trkpt>
      <trkpt lat="45.92449" lon="2.98168">
        <ele>752</ele>
        <time>2015-10-20T04:59:57Z</time>
      </trkpt>
      <trkpt lat="45.9244" lon="2.98149">
        <ele>752</ele>
        <time>2015-10-20T05:01:57Z</time>
      </trkpt>
      <trkpt lat="45.9243" lon="2.98128">
        <ele>753</ele>
        <time>2015-10-20T05:03:57Z</time>
      </trkpt>
      <trkpt lat="45.92417" lon="2.98097">
        <ele>754</ele>
        <time>2015-10-20T05:05:57Z</time>
      </trkpt>
      <trkpt lat="45.92406" lon="2.98078">
        <ele>753</ele>
        <time>2015-10-20T05:07:57Z</time>
      </trkpt>
      <trkpt lat="45.92381" lon="2.98054">
        <ele>750</ele>
        <time>2015-10-20T05:09:57Z</time>
      </trkpt>
      <trkpt lat="45.92363" lon="2.98037">
        <ele>748</ele>
        <time>2015-10-20T05:11:57Z</time>
      </trkpt>
      <trkpt lat="45.92344" lon="2.9802">
        <ele>747</ele>
        <time>2015-10-20T05:13:57Z</time>
      </trkpt>
      <trkpt lat="45.92319" lon="2.97989">
        <ele>745</ele>
        <time>2015-10-20T05:15:57Z</time>
      </trkpt>
      <trkpt lat="45.92312" lon="2.97976">
        <ele>745</ele>
        <time>2015-10-20T05:17:57Z</time>
      </trkpt>
      <trkpt lat="45.92329" lon="2.97948">
        <ele>745</ele>
        <time>2015-10-20T05:19:57Z</time>
      </trkpt>
      <trkpt lat="45.92342" lon="2.97925">
        <ele>746</ele>
        <time>2015-10-20T05:21:57Z</time>
      </trkpt>
      <trkpt lat="45.92357" lon="2.979">
        <ele>746</ele>
        <time>2015-10-20T05:23:57Z</time>
      </trkpt>
      <trkpt lat="45.92364" lon="2.97884">
        <ele>747</ele>
        <time>2015-10-20T05:25:57Z</time>
      </trkpt>
      <trkpt lat="45.92373" lon="2.97829">
        <ele>749</ele>
        <time>2015-10-20T05:27:57Z</time>
      </trkpt>
      <trkpt lat="45.92376" lon="2.97791">
        <ele>750</ele>
        <time>2015-10-20T05:29:57Z</time>
      </trkpt>
      <trkpt lat="45.92378" lon="2.97759">
        <ele>751</ele>
        <time>2015-10-20T05:31:57Z</time>
      </trkpt>
      <trkpt lat="45.92386" lon="2.97716">
        <ele>753</ele>
        <time>2015-10-20T05:33:57Z</time>
      </trkpt>
      <trkpt lat="45.92395" lon="2.97656">
        <ele>756</ele>
        <time>2015-10-20T05:35:57Z</time>
      </trkpt>
      <trkpt lat="45.92408" lon="2.97595">
        <ele>760</ele>
        <time>2015-10-20T05:37:57Z</time>
      </trkpt>
      <trkpt lat="45.92415" lon="2.97563">
        <ele>761</ele>
        <time>2015-10-20T05:39:57Z</time>
      </trkpt>
      <trkpt lat="45.92421" lon="2.97505">
        <ele>762</ele>
        <time>2015-10-20T05:41:57Z</time>
      </trkpt>
      <trkpt lat="45.92437" lon="2.97441">
        <ele>762</ele>
        <time>2015-10-20T05:43:57Z</time>
      </trkpt>
      <trkpt lat="45.92446" lon="2.97415">
        <ele>761</ele>
        <time>2015-10-20T05:45:57Z</time>
      </trkpt>
      <trkpt lat="45.92461" lon="2.97404">
        <ele>762</ele>
        <time>2015-10-20T05:47:57Z</time>
      </trkpt>
      <trkpt lat="45.9248" lon="2.97406">
        <ele>762</ele>
        <time>2015-10-20T05:49:57Z</time>
      </trkpt>
      <trkpt lat="45.925" lon="2.97415">
        <ele>762</ele>
        <time>2015-10-20T05:51:57Z</time>
      </trkpt>
      <trkpt lat="45.92524" lon="2.97419">
        <ele>762</ele>
        <time>2015-10-20T05:53:57Z</time>
      </trkpt>
      <trkpt lat="45.92561" lon="2.97417">
        <ele>763</ele>
        <time>2015-10-20T05:55:57Z</time>
      </trkpt>
      <trkpt lat="45.92569" lon="2.97378">
        <ele>764</ele>
        <time>2015-10-20T05:57:57Z</time>
      </trkpt>
      <trkpt lat="45.92564" lon="2.97348">
        <ele>764</ele>
        <time>2015-10-20T05:59:57Z</time>
      </trkpt>
      <trkpt lat="45.92557" lon="2.97319">
        <ele>764</ele>
        <time>2015-10-20T06:01:57Z</time>
      </trkpt>
      <trkpt lat="45.92548" lon="2.97282">
        <ele>763</ele>
        <time>2015-10-20T06:03:57Z</time>
      </trkpt>
      <trkpt lat="45.92535" lon="2.97251">
        <ele>763</ele>
        <time>2015-10-20T06:05:57Z</time>
      </trkpt>
      <trkpt lat="45.92523" lon="2.9723">
        <ele>763</ele>
        <time>2015-10-20T06:07:57Z</time>
      </trkpt>
      <trkpt lat="45.92517" lon="2.97211">
        <ele>764</ele>
        <time>2015-10-20T06:09:57Z</time>
      </trkpt>
      <trkpt lat="45.92511" lon="2.9718">
        <ele>765</ele>
        <time>2015-10-20T06:11:57Z</time>
      </trkpt>
      <trkpt lat="45.92506" lon="2.97142">
        <ele>766</ele>
        <time>2015-10-20T06:13:57Z</time>
      </trkpt>
      <trkpt lat="45.92506" lon="2.97076">
        <ele>769</ele>
        <time>2015-10-20T06:15:57Z</time>
      </trkpt>
      <trkpt lat="45.925" lon="2.97001">
        <ele>772</ele>
        <time>2015-10-20T06:17:57Z</time>
      </trkpt>
      <trkpt lat="45.92503" lon="2.96958">
        <ele>776</ele>
        <time>2015-10-20T06:19:57Z</time>
      </trkpt>
      <trkpt lat="45.92512" lon="2.96914">
        <ele>781</ele>
        <time>2015-10-20T06:21:57Z</time>
      </trkpt>
      <trkpt lat="45.92525" lon="2.96875">
        <ele>786</ele>
        <time>2015-10-20T06:23:57Z</time>
      </trkpt>
      <trkpt lat="45.92551" lon="2.96777">
        <ele>798</ele>
        <time>2015-10-20T06:25:57Z</time>
      </trkpt>
      <trkpt lat="45.92569" lon="2.96755">
        <ele>802</ele>
        <time>2015-10-20T06:27:57Z</time>
      </trkpt>
      <trkpt lat="45.92583" lon="2.96749">
        <ele>805</ele>
        <time>2015-10-20T06:29:57Z</time>
      </trkpt>
      <trkpt lat="45.92594" lon="2.9675">
        <ele>807</ele>
        <time>2015-10-20T06:31:57Z</time>
      </trkpt>
      <trkpt lat="45.92601" lon="2.96741">
        <ele>809</ele>
        <time>2015-10-20T06:33:57Z</time>
      </trkpt>
      <trkpt lat="45.92615" lon="2.96707">
        <ele>814</ele>
        <time>2015-10-20T06:35:57Z</time>
      </trkpt>
      <trkpt lat="45.92632" lon="2.96684">
        <ele>819</ele>
        <time>2015-10-20T06:37:57Z</time>
      </trkpt>
      <trkpt lat="45.92645" lon="2.96666">
        <ele>822</ele>
        <time>2015-10-20T06:39:57Z</time>
      </trkpt>
      <trkpt lat="45.92655" lon="2.96635">
        <ele>825</ele>
        <time>2015-10-20T06:41:57Z</time>
      </trkpt>
      <trkpt lat="45.92665" lon="2.96605">
        <ele>828</ele>
        <time>2015-10-20T06:43:57Z</time>
      </trkpt>
      <trkpt lat="45.92675" lon="2.96557">
        <ele>833</ele>
        <time>2015-10-20T06:45:57Z</time>
      </trkpt>
      <trkpt lat="45.92691" lon="2.96524">
        <ele>839</ele>
        <time>2015-10-20T06:47:57Z</time>
      </trkpt>
      <trkpt lat="45.92715" lon="2.96462">
        <ele>846</ele>
        <time>2015-10-20T06:49:57Z</time>
      </trkpt>
      <trkpt lat="45.92725" lon="2.9644">
        <ele>848</ele>
        <time>2015-10-20T06:51:57Z</time>
      </trkpt>
      <trkpt lat="45.9273" lon="2.9646">
        <ele>847</ele>
        <time>2015-10-20T06:53:57Z</time>
      </trkpt>
      <trkpt lat="45.92738" lon="2.96495">
        <ele>847</ele>
        <time>2015-10-20T06:55:57Z</time>
      </trkpt>
      <trkpt lat="45.92742" lon="2.96518">
        <ele>847</ele>
        <time>2015-10-20T06:57:57Z</time>
      </trkpt>
      <trkpt lat="45.92741" lon="2.96558">
        <ele>845</ele>
        <time>2015-10-20T06:59:57Z</time>
      </trkpt>
      <trkpt lat="45.92752" lon="2.96595">
        <ele>845</ele>
        <time>2015-10-20T07:01:57Z</time>
      </trkpt>
      <trkpt lat="45.92769" lon="2.96626">
        <ele>845</ele>
        <time>2015-10-20T07:03:57Z</time>
      </trkpt>
      <trkpt lat="45.92789" lon="2.96653">
        <ele>844</ele>
        <time>2015-10-20T07:05:57Z</time>
      </trkpt>
      <trkpt lat="45.92809" lon="2.96677">
        <ele>843</ele>
        <time>2015-10-20T07:07:57Z</time>
      </trkpt>
      <trkpt lat="45.92848" lon="2.96719">
        <ele>840</ele>
        <time>2015-10-20T07:09:57Z</time>
      </trkpt>
      <trkpt lat="45.92871" lon="2.96742">
        <ele>837</ele>
        <time>2015-10-20T07:11:57Z</time>
      </trkpt>
      <trkpt lat="45.92892" lon="2.96768">
        <ele>835</ele>
        <time>2015-10-20T07:13:57Z</time>
      </trkpt>
      <trkpt lat="45.92919" lon="2.968">
        <ele>833</ele>
        <time>2015-10-20T07:15:57Z</time>
      </trkpt>
      <trkpt lat="45.92956" lon="2.96848">
        <ele>833</ele>
        <time>2015-10-20T07:17:57Z</time>
      </trkpt>
      <trkpt lat="45.92985" lon="2.96815">
        <ele>833</ele>
        <time>2015-10-20T07:19:57Z</time>
      </trkpt>
      <trkpt lat="45.92998" lon="2.96796">
        <ele>833</ele>
        <time>2015-10-20T07:21:57Z</time>
      </trkpt>
      <trkpt lat="45.93023" lon="2.96764">
        <ele>831</ele>
        <time>2015-10-20T07:23:57Z</time>
      </trkpt>
      <trkpt lat="45.93044" lon="2.96742">
        <ele>829</ele>
        <time>2015-10-20T07:25:57Z</time>
      </trkpt>
      <trkpt lat="45.93062" lon="2.96733">
        <ele>828</ele>
        <time>2015-10-20T07:27:57Z</time>
      </trkpt>
      <trkpt lat="45.93082" lon="2.96745">
        <ele>827</ele>
        <time>2015-10-20T07:29:57Z</time>
      </trkpt>
      <trkpt lat="45.93093" lon="2.9675">
        <ele>826</ele>
        <time>2015-10-20T07:31:57Z</time>
      </trkpt>
      <trkpt lat="45.93123" lon="2.96744">
        <ele>825</ele>
        <time>2015-10-20T07:33:57Z</time>
      </trkpt>
      <trkpt lat="45.93154" lon="2.96735">
        <ele>823</ele>
        <time>2015-10-20T07:35:57Z</time>
      </trkpt>
      <trkpt lat="45.9318" lon="2.9672">
        <ele>821</ele>
        <time>2015-10-20T07:37:57Z</time>
      </trkpt>
      <trkpt lat="45.93234" lon="2.96745">
        <ele>816</ele>
        <time>2015-10-20T07:39:57Z</time>
      </trkpt>
      <trkpt lat="45.93266" lon="2.96763">
        <ele>815</ele>
        <time>2015-10-20T07:41:57Z</time>
      </trkpt>
      <trkpt lat="45.93304" lon="2.96792">
        <ele>813</ele>
        <time>2015-10-20T07:43:57Z</time>
      </trkpt>
      <trkpt lat="45.93319" lon="2.96799">
        <ele>812</ele>
        <time>2015-10-20T07:45:57Z</time>
      </trkpt>
      <trkpt lat="45.93332" lon="2.96803">
        <ele>811</ele>
        <time>2015-10-20T07:47:57Z</time>
      </trkpt>
      <trkpt lat="45.93363" lon="2.96798">
        <ele>809</ele>
        <time>2015-10-20T07:49:57Z</time>
      </trkpt>
      <trkpt lat="45.934" lon="2.96793">
        <ele>807</ele>
        <time>2015-10-20T07:51:57Z</time>
      </trkpt>
      <trkpt lat="45.93409" lon="2.96796">
        <ele>806</ele>
        <time>2015-10-20T07:53:57Z</time>
      </trkpt>
      <trkpt lat="45.93487" lon="2.96888">
        <ele>802</ele>
        <time>2015-10-20T07:55:57Z</time>
      </trkpt>
      <trkpt lat="45.93514" lon="2.96918">
        <ele>801</ele>
        <time>2015-10-20T07:57:57Z</time>
      </trkpt>
      <trkpt lat="45.93535" lon="2.96943">
        <ele>801</ele>
        <time>2015-10-20T07:59:57Z</time>
      </trkpt>
      <trkpt lat="45.93553" lon="2.96972">
        <ele>801</ele>
        <time>2015-10-20T08:01:57Z</time>
      </trkpt>
      <trkpt lat="45.93573" lon="2.96991">
        <ele>800</ele>
        <time>2015-10-20T08:03:57Z</time>
      </trkpt>
      <trkpt lat="45.93616" lon="2.97069">
        <ele>800</ele>
        <time>2015-10-20T08:05:57Z</time>
      </trkpt>
      <trkpt lat="45.93633" lon="2.97119">
        <ele>800</ele>
        <time>2015-10-20T08:07:57Z</time>
      </trkpt>
      <trkpt lat="45.93644" lon="2.97143">
        <ele>799</ele>
        <time>2015-10-20T08:09:57Z</time>
      </trkpt>
      <trkpt lat="45.93652" lon="2.97185">
        <ele>799</ele>
        <time>2015-10-20T08:11:57Z</time>
      </trkpt>
      <trkpt lat="45.93653" lon="2.9721">
        <ele>799</ele>
        <time>2015-10-20T08:13:57Z</time>
      </trkpt>
      <trkpt lat="45.93669" lon="2.97201">
        <ele>797</ele>
        <time>2015-10-20T08:15:57Z</time>
      </trkpt>
      <trkpt lat="45.93689" lon="2.97192">
        <ele>796</ele>
        <time>2015-10-20T08:17:57Z</time>
      </trkpt>
      <trkpt lat="45.93737" lon="2.9719">
        <ele>793</ele>
        <time>2015-10-20T08:19:57Z</time>
      </trkpt>
      <trkpt lat="45.93764" lon="2.97199">
        <ele>791</ele>
        <time>2015-10-20T08:21:57Z</time>
      </trkpt>
      <trkpt lat="45.93771" lon="2.97224">
        <ele>791</ele>
        <time>2015-10-20T08:23:57Z</time>
      </trkpt>
      <trkpt lat="45.93791" lon="2.97236">
        <ele>791</ele>
        <time>2015-10-20T08:25:57Z</time>
      </trkpt>
      <trkpt lat="45.938" lon="2.97249">
        <ele>791</ele>
        <time>2015-10-20T08:27:57Z</time>
      </trkpt>
      <trkpt lat="45.93821" lon="2.97243">
        <ele>791</ele>
        <time>2015-10-20T08:29:57Z</time>
      </trkpt>
      <trkpt lat="45.93844" lon="2.97234">
        <ele>790</ele>
        <time>2015-10-20T08:31:57Z</time>
      </trkpt>
      <trkpt lat="45.93875" lon="2.9723">
        <ele>789</ele>
        <time>2015-10-20T08:33:57Z</time>
      </trkpt>
      <trkpt lat="45.939" lon="2.9723">
        <ele>788</ele>
        <time>2015-10-20T08:35:57Z</time>
      </trkpt>
      <trkpt lat="45.93928" lon="2.97231">
        <ele>787</ele>
        <time>2015-10-20T08:37:57Z</time>
      </trkpt>
      <trkpt lat="45.9395" lon="2.97233">
        <ele>786</ele>
        <time>2015-10-20T08:39:57Z</time>
      </trkpt>
      <trkpt lat="45.94002" lon="2.97231">
        <ele>784</ele>
        <time>2015-10-20T08:41:57Z</time>
      </trkpt>
      <trkpt lat="45.94035" lon="2.97223">
        <ele>782</ele>
        <time>2015-10-20T08:43:57Z</time>
      </trkpt>
      <trkpt lat="45.94058" lon="2.97219">
        <ele>780</ele>
        <time>2015-10-20T08:45:57Z</time>
      </trkpt>
      <trkpt lat="45.94099" lon="2.97202">
        <ele>776</ele>
        <time>2015-10-20T08:47:57Z</time>
      </trkpt>
      <trkpt lat="45.94132" lon="2.97193">
        <ele>773</ele>
        <time>2015-10-20T08:49:57Z</time>
      </trkpt>
      <trkpt lat="45.94161" lon="2.97189">
        <ele>771</ele>
        <time>2015-10-20T08:51:57Z</time>
      </trkpt>
      <trkpt lat="45.94214" lon="2.97208">
        <ele>770</ele>
        <time>2015-10-20T08:53:57Z</time>
      </trkpt>
      <trkpt lat="45.94232" lon="2.97226">
        <ele>770</ele>
        <time>2015-10-20T08:55:57Z</time>
      </trkpt>
      <trkpt lat="45.94257" lon="2.97253">
        <ele>770</ele>
        <time>2015-10-20T08:57:57Z</time>
      </trkpt>
      <trkpt lat="45.94307" lon="2.97295">
        <ele>769</ele>
        <time>2015-10-20T08:59:57Z</time>
      </trkpt>
      <trkpt lat="45.94338" lon="2.97327">
        <ele>771</ele>
        <time>2015-10-20T09:01:57Z</time>
      </trkpt>
      <trkpt lat="45.94371" lon="2.97331">
        <ele>773</ele>
        <time>2015-10-20T09:03:57Z</time>
      </trkpt>
      <trkpt lat="45.94392" lon="2.97319">
        <ele>773</ele>
        <time>2015-10-20T09:05:57Z</time>
      </trkpt>
      <trkpt lat="45.9441" lon="2.97304">
        <ele>772</ele>
        <time>2015-10-20T09:07:57Z</time>
      </trkpt>
      <trkpt lat="45.94444" lon="2.97275">
        <ele>767</ele>
        <time>2015-10-20T09:09:57Z</time>
      </trkpt>
      <trkpt lat="45.94494" lon="2.97235">
        <ele>760</ele>
        <time>2015-10-20T09:11:57Z</time>
      </trkpt>
      <trkpt lat="45.94563" lon="2.97183">
        <ele>753</ele>
        <time>2015-10-20T09:13:57Z</time>
      </trkpt>
      <trkpt lat="45.94592" lon="2.97169">
        <ele>752</ele>
        <time>2015-10-20T09:15:57Z</time>
      </trkpt>
      <trkpt lat="45.94619" lon="2.9715">
        <ele>752</ele>
        <time>2015-10-20T09:17:57Z</time>
      </trkpt>
      <trkpt lat="45.94643" lon="2.97136">
        <ele>752</ele>
        <time>2015-10-20T09:19:57Z</time>
      </trkpt>
      <trkpt lat="45.94696" lon="2.97111">
        <ele>752</ele>
        <time>2015-10-20T09:21:57Z</time>
      </trkpt>
      <trkpt lat="45.94713" lon="2.97104">
        <ele>752</ele>
        <time>2015-10-20T09:23:57Z</time>
      </trkpt>
      <trkpt lat="45.9473" lon="2.97136">
        <ele>756</ele>
        <time>2015-10-20T09:25:57Z</time>
      </trkpt>
      <trkpt lat="45.9476" lon="2.97184">
        <ele>761</ele>
        <time>2015-10-20T09:27:57Z</time>
      </trkpt>
      <trkpt lat="45.94776" lon="2.97205">
        <ele>763</ele>
        <time>2015-10-20T09:29:57Z</time>
      </trkpt>
      <trkpt lat="45.94749" lon="2.97358">
        <ele>771</ele>
        <time>2015-10-20T09:31:57Z</time>
      </trkpt>
      <trkpt lat="45.94743" lon="2.97394">
        <ele>773</ele>
        <time>2015-10-20T09:33:57Z</time>
      </trkpt>
      <trkpt lat="45.94799" lon="2.97404">
        <ele>774</ele>
        <time>2015-10-20T09:35:57Z</time>
      </trkpt>
      <trkpt lat="45.94862" lon="2.97423">
        <ele>776</ele>
        <time>2015-10-20T09:37:57Z</time>
      </trkpt>
      <trkpt lat="45.94905" lon="2.9744">
        <ele>777</ele>
        <time>2015-10-20T09:39:57Z</time>
      </trkpt>
      <trkpt lat="45.94955" lon="2.97463">
        <ele>776</ele>
        <time>2015-10-20T09:41:57Z</time>
      </trkpt>
      <trkpt lat="45.9498" lon="2.97444">
        <ele>774</ele>
        <time>2015-10-20T09:43:57Z</time>
      </trkpt>
      <trkpt lat="45.95017" lon="2.97419">
        <ele>772</ele>
        <time>2015-10-20T09:45:57Z</time>
      </trkpt>
      <trkpt lat="45.95059" lon="2.97388">
        <ele>770</ele>
        <time>2015-10-20T09:47:57Z</time>
      </trkpt>
      <trkpt lat="45.95084" lon="2.97386">
        <ele>770</ele>
        <time>2015-10-20T09:49:57Z</time>
      </trkpt>
      <trkpt lat="45.95104" lon="2.9739">
        <ele>771</ele>
        <time>2015-10-20T09:51:57Z</time>
      </trkpt>
      <trkpt lat="45.95138" lon="2.97414">
        <ele>773</ele>
        <time>2015-10-20T09:53:57Z</time>
      </trkpt>
      <trkpt lat="45.95152" lon="2.97427">
        <ele>773</ele>
        <time>2015-10-20T09:55:57Z</time>
      </trkpt>
      <trkpt lat="45.95184" lon="2.97457">
        <ele>773</ele>
        <time>2015-10-20T09:57:57Z</time>
      </trkpt>
      <trkpt lat="45.95196" lon="2.97455">
        <ele>773</ele>
        <time>2015-10-20T09:59:57Z</time>
      </trkpt>
      <trkpt lat="45.95208" lon="2.97435">
        <ele>774</ele>
        <time>2015-10-20T10:01:57Z</time>
      </trkpt>
      <trkpt lat="45.95215" lon="2.97401">
        <ele>774</ele>
        <time>2015-10-20T10:03:57Z</time>
      </trkpt>
      <trkpt lat="45.95222" lon="2.97363">
        <ele>774</ele>
        <time>2015-10-20T10:05:57Z</time>
      </trkpt>
      <trkpt lat="45.95227" lon="2.97328">
        <ele>773</ele>
        <time>2015-10-20T10:07:57Z</time>
      </trkpt>
      <trkpt lat="45.95231" lon="2.97296">
        <ele>773</ele>
        <time>2015-10-20T10:09:57Z</time>
      </trkpt>
      <trkpt lat="45.95235" lon="2.97253">
        <ele>773</ele>
        <time>2015-10-20T10:11:57Z</time>
      </trkpt>
      <trkpt lat="45.95257" lon="2.97166">
        <ele>772</ele>
        <time>2015-10-20T10:13:57Z</time>
      </trkpt>
      <trkpt lat="45.95283" lon="2.97087">
        <ele>771</ele>
        <time>2015-10-20T10:15:57Z</time>
      </trkpt>
      <trkpt lat="45.95309" lon="2.9701">
        <ele>768</ele>
        <time>2015-10-20T10:17:57Z</time>
      </trkpt>
      <trkpt lat="45.95325" lon="2.96963">
        <ele>767</ele>
        <time>2015-10-20T10:19:57Z</time>
      </trkpt>
      <trkpt lat="45.9535" lon="2.96875">
        <ele>765</ele>
        <time>2015-10-20T10:21:57Z</time>
      </trkpt>
      <trkpt lat="45.95366" lon="2.96821">
        <ele>763</ele>
        <time>2015-10-20T10:23:57Z</time>
      </trkpt>
      <trkpt lat="45.95372" lon="2.96777">
        <ele>761</ele>
        <time>2015-10-20T10:25:57Z</time>
      </trkpt>
      <trkpt lat="45.95378" lon="2.96747">
        <ele>759</ele>
        <time>2015-10-20T10:27:57Z</time>
      </trkpt>
      <trkpt lat="45.95382" lon="2.96722">
        <ele>758</ele>
        <time>2015-10-20T10:29:57Z</time>
      </trkpt>
      <trkpt lat="45.95411" lon="2.96674">
        <ele>758</ele>
        <time>2015-10-20T10:31:57Z</time>
      </trkpt>
      <trkpt lat="45.95436" lon="2.96639">
        <ele>757</ele>
        <time>2015-10-20T10:33:57Z</time>
      </trkpt>
      <trkpt lat="45.95454" lon="2.96603">
        <ele>756</ele>
        <time>2015-10-20T10:35:57Z</time>
      </trkpt>
      <trkpt lat="45.95482" lon="2.96604">
        <ele>756</ele>
        <time>2015-10-20T10:37:57Z</time>
      </trkpt>
      <trkpt lat="45.95504" lon="2.96608">
        <ele>757</ele>
        <time>2015-10-20T10:39:57Z</time>
      </trkpt>
      <trkpt lat="45.95524" lon="2.96608">
        <ele>757</ele>
        <time>2015-10-20T10:41:57Z</time>
      </trkpt>
      <trkpt lat="45.95571" lon="2.96624">
        <ele>759</ele>
        <time>2015-10-20T10:43:57Z</time>
      </trkpt>
      <trkpt lat="45.95626" lon="2.96631">
        <ele>761</ele>
        <time>2015-10-20T10:45:57Z</time>
      </trkpt>
      <trkpt lat="45.95694" lon="2.96623">
        <ele>761</ele>
        <time>2015-10-20T10:47:57Z</time>
      </trkpt>
      <trkpt lat="45.95725" lon="2.96617">
        <ele>760</ele>
        <time>2015-10-20T10:49:57Z</time>
      </trkpt>
      <trkpt lat="45.95774" lon="2.9661">
        <ele>757</ele>
        <time>2015-10-20T10:51:57Z</time>
      </trkpt>
      <trkpt lat="45.95823" lon="2.96631">
        <ele>758</ele>
        <time>2015-10-20T10:53:57Z</time>
      </trkpt>
      <trkpt lat="45.95844" lon="2.96653">
        <ele>760</ele>
        <time>2015-10-20T10:55:57Z</time>
      </trkpt>
      <trkpt lat="45.95867" lon="2.96678">
        <ele>761</ele>
        <time>2015-10-20T10:57:57Z</time>
      </trkpt>
      <trkpt lat="45.95903" lon="2.96726">
        <ele>761</ele>
        <time>2015-10-20T10:59:57Z</time>
      </trkpt>
      <trkpt lat="45.9593" lon="2.96772">
        <ele>763</ele>
        <time>2015-10-20T11:01:57Z</time>
      </trkpt>
      <trkpt lat="45.95958" lon="2.96833">
        <ele>765</ele>
        <time>2015-10-20T11:03:57Z</time>
      </trkpt>
      <trkpt lat="45.95974" lon="2.96891">
        <ele>764</ele>
        <time>2015-10-20T11:05:57Z</time>
      </trkpt>
      <trkpt lat="45.95991" lon="2.96904">
        <ele>761</ele>
        <time>2015-10-20T11:07:57Z</time>
      </trkpt>
      <trkpt lat="45.96011" lon="2.96916">
        <ele>759</ele>
        <time>2015-10-20T11:09:57Z</time>
      </trkpt>
      <trkpt lat="45.96033" lon="2.96928">
        <ele>759</ele>
        <time>2015-10-20T11:11:57Z</time>
      </trkpt>
      <trkpt lat="45.96049" lon="2.96939">
        <ele>759</ele>
        <time>2015-10-20T11:13:57Z</time>
      </trkpt>
      <trkpt lat="45.96065" lon="2.96947">
        <ele>759</ele>
        <time>2015-10-20T11:15:57Z</time>
      </trkpt>
      <trkpt lat="45.96094" lon="2.9696">
        <ele>758</ele>
        <time>2015-10-20T11:17:57Z</time>
      </trkpt>
      <trkpt lat="45.9612" lon="2.96958">
        <ele>754</ele>
        <time>2015-10-20T11:19:57Z</time>
      </trkpt>
      <trkpt lat="45.96152" lon="2.96969">
        <ele>750</ele>
        <time>2015-10-20T11:21:57Z</time>
      </trkpt>
      <trkpt lat="45.96176" lon="2.96986">
        <ele>745</ele>
        <time>2015-10-20T11:23:57Z</time>
      </trkpt>
      <trkpt lat="45.96194" lon="2.9701">
        <ele>740</ele>
        <time>2015-10-20T11:25:57Z</time>
      </trkpt>
      <trkpt lat="45.9621" lon="2.97025">
        <ele>736</ele>
        <time>2015-10-20T11:27:57Z</time>
      </trkpt>
      <trkpt lat="45.96242" lon="2.97065">
        <ele>727</ele>
        <time>2015-10-20T11:29:57Z</time>
      </trkpt>
      <trkpt lat="45.96257" lon="2.97084">
        <ele>723</ele>
        <time>2015-10-20T11:31:57Z</time>
      </trkpt>
      <trkpt lat="45.96271" lon="2.97102">
        <ele>719</ele>
        <time>2015-10-20T11:33:57Z</time>
      </trkpt>
      <trkpt lat="45.96291" lon="2.97119">
        <ele>713</ele>
        <time>2015-10-20T11:35:57Z</time>
      </trkpt>
      <trkpt lat="45.96322" lon="2.97118">
        <ele>704</ele>
        <time>2015-10-20T11:37:57Z</time>
      </trkpt>
      <trkpt lat="45.96348" lon="2.97122">
        <ele>699</ele>
        <time>2015-10-20T11:39:57Z</time>
      </trkpt>
      <trkpt lat="45.96368" lon="2.97131">
        <ele>698</ele>
        <time>2015-10-20T11:41:57Z</time>
      </trkpt>
      <trkpt lat="45.96385" lon="2.9712">
        <ele>697</ele>
        <time>2015-10-20T11:43:57Z</time>
      </trkpt>
      <trkpt lat="45.964" lon="2.97107">
        <ele>696</ele>
        <time>2015-10-20T11:45:57Z</time>
      </trkpt>
      <trkpt lat="45.96413" lon="2.97092">
        <ele>696</ele>
        <time>2015-10-20T11:47:57Z</time>
      </trkpt>
      <trkpt lat="45.96423" lon="2.97079">
        <ele>695</ele>
        <time>2015-10-20T11:49:57Z</time>
      </trkpt>
      <trkpt lat="45.96447" lon="2.97056">
        <ele>693</ele>
        <time>2015-10-20T11:51:57Z</time>
      </trkpt>
      <trkpt lat="45.96458" lon="2.97058">
        <ele>692</ele>
        <time>2015-10-20T11:53:57Z</time>
      </trkpt>
      <trkpt lat="45.96472" lon="2.97066">
        <ele>691</ele>
        <time>2015-10-20T11:55:57Z</time>
      </trkpt>
      <trkpt lat="45.965" lon="2.9708">
        <ele>690</ele>
        <time>2015-10-20T11:57:57Z</time>
      </trkpt>
      <trkpt lat="45.96513" lon="2.97093">
        <ele>690</ele>
        <time>2015-10-20T11:59:57Z</time>
      </trkpt>
      <trkpt lat="45.96525" lon="2.97079">
        <ele>689</ele>
        <time>2015-10-20T12:01:57Z</time>
      </trkpt>
      <trkpt lat="45.96539" lon="2.97061">
        <ele>689</ele>
        <time>2015-10-20T12:03:57Z</time>
      </trkpt>
      <trkpt lat="45.96547" lon="2.97039">
        <ele>689</ele>
        <time>2015-10-20T12:05:57Z</time>
      </trkpt>
      <trkpt lat="45.96564" lon="2.96979">
        <ele>689</ele>
        <time>2015-10-20T12:07:57Z</time>
      </trkpt>
      <trkpt lat="45.96582" lon="2.96918">
        <ele>688</ele>
        <time>2015-10-20T12:09:57Z</time>
      </trkpt>
      <trkpt lat="45.9659" lon="2.9688">
        <ele>686</ele>
        <time>2015-10-20T12:11:57Z</time>
      </trkpt>
      <trkpt lat="45.96615" lon="2.96806">
        <ele>683</ele>
        <time>2015-10-20T12:13:57Z</time>
      </trkpt>
      <trkpt lat="45.96623" lon="2.96788">
        <ele>682</ele>
        <time>2015-10-20T12:15:57Z</time>
      </trkpt>
      <trkpt lat="45.96638" lon="2.96804">
        <ele>683</ele>
        <time>2015-10-20T12:17:57Z</time>
      </trkpt>
      <trkpt lat="45.96659" lon="2.96798">
        <ele>682</ele>
        <time>2015-10-20T12:19:57Z</time>
      </trkpt>
      <trkpt lat="45.96674" lon="2.96794">
        <ele>682</ele>
        <time>2015-10-20T12:21:57Z</time>
      </trkpt>
      <trkpt lat="45.96691" lon="2.96796">
        <ele>681</ele>
        <time>2015-10-20T12:23:57Z</time>
      </trkpt>
      <trkpt lat="45.96706" lon="2.96789">
        <ele>681</ele>
        <time>2015-10-20T12:25:57Z</time>
      </trkpt>
      <trkpt lat="45.96718" lon="2.96796">
        <ele>681</ele>
        <time>2015-10-20T12:27:57Z</time>
      </trkpt>
      <trkpt lat="45.96743" lon="2.96797">
        <ele>680</ele>
        <time>2015-10-20T12:29:57Z</time>
      </trkpt>
      <trkpt lat="45.96759" lon="2.96802">
        <ele>680</ele>
        <time>2015-10-20T12:31:57Z</time>
      </trkpt>
      <trkpt lat="45.96788" lon="2.96808">
        <ele>678</ele>
        <time>2015-10-20T12:33:57Z</time>
      </trkpt>
      <trkpt lat="45.96794" lon="2.96839">
        <ele>678</ele>
        <time>2015-10-20T12:35:57Z</time>
      </trkpt>
      <trkpt lat="45.96806" lon="2.96885">
        <ele>678</ele>
        <time>2015-10-20T12:37:57Z</time>
      </trkpt>
      <trkpt lat="45.96825" lon="2.96849">
        <ele>676</ele>
        <time>2015-10-20T12:39:57Z</time>
      </trkpt>
      <trkpt lat="45.96847" lon="2.96806">
        <ele>673</ele>
        <time>2015-10-20T12:41:57Z</time>
      </trkpt>
      <trkpt lat="45.96863" lon="2.96789">
        <ele>671</ele>
        <time>2015-10-20T12:43:57Z</time>
      </trkpt>
      <trkpt lat="45.96895" lon="2.96745">
        <ele>666</ele>
        <time>2015-10-20T12:45:57Z</time>
      </trkpt>
      <trkpt lat="45.9692" lon="2.96703">
        <ele>661</ele>
        <time>2015-10-20T12:47:57Z</time>
      </trkpt>
      <trkpt lat="45.96935" lon="2.96678">
        <ele>659</ele>
        <time>2015-10-20T12:49:57Z</time>
      </trkpt>
      <trkpt lat="45.96952" lon="2.96639">
        <ele>657</ele>
        <time>2015-10-20T12:51:57Z</time>
      </trkpt>
      <trkpt lat="45.9698" lon="2.96577">
        <ele>658</ele>
        <time>2015-10-20T12:53:57Z</time>
      </trkpt>
      <trkpt lat="45.96993" lon="2.9656">
        <ele>659</ele>
        <time>2015-10-20T12:55:57Z</time>
      </trkpt>
      <trkpt lat="45.97011" lon="2.96556">
        <ele>660</ele>
        <time>2015-10-20T12:57:57Z</time>
      </trkpt>
      <trkpt lat="45.97035" lon="2.96557">
        <ele>659</ele>
        <time>2015-10-20T12:59:57Z</time>
      </trkpt>
      <trkpt lat="45.97073" lon="2.96566">
        <ele>658</ele>
        <time>2015-10-20T13:01:57Z</time>
      </trkpt>
      <trkpt lat="45.97113" lon="2.96563">
        <ele>655</ele>
        <time>2015-10-20T13:03:57Z</time>
      </trkpt>
      <trkpt lat="45.97143" lon="2.96586">
        <ele>649</ele>
        <time>2015-10-20T13:05:57Z</time>
      </trkpt>
      <trkpt lat="45.97169" lon="2.96606">
        <ele>646</ele>
        <time>2015-10-20T13:07:57Z</time>
      </trkpt>
      <trkpt lat="45.97193" lon="2.96625">
        <ele>644</ele>
        <time>2015-10-20T13:09:57Z</time>
      </trkpt>
      <trkpt lat="45.97215" lon="2.96638">
        <ele>643</ele>
        <time>2015-10-20T13:11:57Z</time>
      </trkpt>
      <trkpt lat="45.97238" lon="2.96661">
        <ele>641</ele>
        <time>2015-10-20T13:13:57Z</time>
      </trkpt>
      <trkpt lat="45.97254" lon="2.9667">
        <ele>640</ele>
        <time>2015-10-20T13:15:57Z</time>
      </trkpt>
      <trkpt lat="45.97283" lon="2.96684">
        <ele>638</ele>
        <time>2015-10-20T13:17:57Z</time>
      </trkpt>
      <trkpt lat="45.97302" lon="2.96703">
        <ele>636</ele>
        <time>2015-10-20T13:19:57Z</time>
      </trkpt>
      <trkpt lat="45.97323" lon="2.9671">
        <ele>634</ele>
        <time>2015-10-20T13:21:57Z</time>
      </trkpt>
      <trkpt lat="45.97332" lon="2.96712">
        <ele>633</ele>
        <time>2015-10-20T13:23:57Z</time>
      </trkpt>
      <trkpt lat="45.97367" lon="2.96723">
        <ele>629</ele>
        <time>2015-10-20T13:25:57Z</time>
      </trkpt>
      <trkpt lat="45.97385" lon="2.96729">
        <ele>627</ele>
        <time>2015-10-20T13:27:57Z</time>
      </trkpt>
      <trkpt lat="45.97398" lon="2.96766">
        <ele>623</ele>
        <time>2015-10-20T13:29:57Z</time>
      </trkpt>
      <trkpt lat="45.97395" lon="2.96808">
        <ele>621</ele>
        <time>2015-10-20T13:31:57Z</time>
      </trkpt>
      <trkpt lat="45.97388" lon="2.96836">
        <ele>620</ele>
        <time>2015-10-20T13:33:57Z</time>
      </trkpt>
      <trkpt lat="45.97376" lon="2.96889">
        <ele>621</ele>
        <time>2015-10-20T13:35:57Z</time>
      </trkpt>
      <trkpt lat="45.97374" lon="2.96918">
        <ele>621</ele>
        <time>2015-10-20T13:37:57Z</time>
      </trkpt>
      <trkpt lat="45.97375" lon="2.96937">
        <ele>621</ele>
        <time>2015-10-20T13:39:57Z</time>
      </trkpt>
      <trkpt lat="45.97381" lon="2.96962">
        <ele>621</ele>
        <time>2015-10-20T13:41:57Z</time>
      </trkpt>
      <trkpt lat="45.97392" lon="2.96988">
        <ele>621</ele>
        <time>2015-10-20T13:43:57Z</time>
      </trkpt>
      <trkpt lat="45.97401" lon="2.97018">
        <ele>622</ele>
        <time>2015-10-20T13:45:57Z</time>
      </trkpt>
      <trkpt lat="45.97404" lon="2.97038">
        <ele>623</ele>
        <time>2015-10-20T13:47:57Z</time>
      </trkpt>
      <trkpt lat="45.974" lon="2.97078">
        <ele>626</ele>
        <time>2015-10-20T13:49:57Z</time>
      </trkpt>
      <trkpt lat="45.97394" lon="2.97112">
        <ele>628</ele>
        <time>2015-10-20T13:51:57Z</time>
      </trkpt>
      <trkpt lat="45.97398" lon="2.9715">
        <ele>631</ele>
        <time>2015-10-20T13:53:57Z</time>
      </trkpt>
      <trkpt lat="45.97409" lon="2.97209">
        <ele>634</ele>
        <time>2015-10-20T13:55:57Z</time>
      </trkpt>
      <trkpt lat="45.97435" lon="2.97249">
        <ele>636</ele>
        <time>2015-10-20T13:57:57Z</time>
      </trkpt>
      <trkpt lat="45.97447" lon="2.97265">
        <ele>636</ele>
        <time>2015-10-20T13:59:57Z</time>
      </trkpt>
      <trkpt lat="45.9746" lon="2.97278">
        <ele>636</ele>
        <time>2015-10-20T14:01:57Z</time>
      </trkpt>
      <trkpt lat="45.97498" lon="2.97311">
        <ele>636</ele>
        <time>2015-10-20T14:03:57Z</time>
      </trkpt>
      <trkpt lat="45.97511" lon="2.97319">
        <ele>636</ele>
        <time>2015-10-20T14:05:57Z</time>
      </trkpt>
      <trkpt lat="45.97547" lon="2.97316">
        <ele>635</ele>
        <time>2015-10-20T14:07:57Z</time>
      </trkpt>
      <trkpt lat="45.97558" lon="2.97322">
        <ele>635</ele>
        <time>2015-10-20T14:09:57Z</time>
      </trkpt>
      <trkpt lat="45.97574" lon="2.97344">
        <ele>635</ele>
        <time>2015-10-20T14:11:57Z</time>
      </trkpt>
      <trkpt lat="45.97585" lon="2.97371">
        <ele>635</ele>
        <time>2015-10-20T14:13:57Z</time>
      </trkpt>
      <trkpt lat="45.97598" lon="2.97401">
        <ele>635</ele>
        <time>2015-10-20T14:15:57Z</time>
      </trkpt>
      <trkpt lat="45.97615" lon="2.97433">
        <ele>634</ele>
        <time>2015-10-20T14:17:57Z</time>
      </trkpt>
      <trkpt lat="45.97627" lon="2.97466">
        <ele>633</ele>
        <time>2015-10-20T14:19:57Z</time>
      </trkpt>
      <trkpt lat="45.97638" lon="2.975">
        <ele>630</ele>
        <time>2015-10-20T14:21:57Z</time>
      </trkpt>
      <trkpt lat="45.97645" lon="2.97519">
        <ele>629</ele>
        <time>2015-10-20T14:23:57Z</time>
      </trkpt>
      <trkpt lat="45.9765" lon="2.97544">
        <ele>628</ele>
        <time>2015-10-20T14:25:57Z</time>
      </trkpt>
      <trkpt lat="45.97662" lon="2.97588">
        <ele>627</ele>
        <time>2015-10-20T14:27:57Z</time>
      </trkpt>
      <trkpt lat="45.97674" lon="2.97591">
        <ele>626</ele>
        <time>2015-10-20T14:29:57Z</time>
      </trkpt>
      <trkpt lat="45.97685" lon="2.97584">
        <ele>625</ele>
        <time>2015-10-20T14:31:57Z</time>
      </trkpt>
      <trkpt lat="45.9772" lon="2.97572">
        <ele>623</ele>
        <time>2015-10-20T14:33:57Z</time>
      </trkpt>
      <trkpt lat="45.97738" lon="2.97565">
        <ele>622</ele>
        <time>2015-10-20T14:35:57Z</time>
      </trkpt>
      <trkpt lat="45.97768" lon="2.97557">
        <ele>621</ele>
        <time>2015-10-20T14:37:57Z</time>
      </trkpt>
      <trkpt lat="45.97787" lon="2.97557">
        <ele>620</ele>
        <time>2015-10-20T14:39:57Z</time>
      </trkpt>
      <trkpt lat="45.97796" lon="2.97555">
        <ele>619</ele>
        <time>2015-10-20T14:41:57Z</time>
      </trkpt>
      <trkpt lat="45.97809" lon="2.97554">
        <ele>619</ele>
        <time>2015-10-20T14:43:57Z</time>
      </trkpt>
      <trkpt lat="45.97823" lon="2.97563">
        <ele>618</ele>
        <time>2015-10-20T14:45:57Z</time>
      </trkpt>
      <trkpt lat="45.97838" lon="2.97573">
        <ele>617</ele>
        <time>2015-10-20T14:47:57Z</time>
      </trkpt>
      <trkpt lat="45.9785" lon="2.97585">
        <ele>616</ele>
        <time>2015-10-20T14:49:57Z</time>
      </trkpt>
      <trkpt lat="45.97861" lon="2.97636">
        <ele>617</ele>
        <time>2015-10-20T14:51:57Z</time>
      </trkpt>
      <trkpt lat="45.97868" lon="2.9766">
        <ele>617</ele>
        <time>2015-10-20T14:53:57Z</time>
      </trkpt>
      <trkpt lat="45.97866" lon="2.97692">
        <ele>618</ele>
        <time>2015-10-20T14:55:57Z</time>
      </trkpt>
      <trkpt lat="45.9787" lon="2.97743">
        <ele>620</ele>
        <time>2015-10-20T14:57:57Z</time>
      </trkpt>
      <trkpt lat="45.97878" lon="2.97789">
        <ele>619</ele>
        <time>2015-10-20T14:59:57Z</time>
      </trkpt>
      <trkpt lat="45.97885" lon="2.9785">
        <ele>620</ele>
        <time>2015-10-20T15:01:57Z</time>
      </trkpt>
      <trkpt lat="45.97923" lon="2.97833">
        <ele>617</ele>
        <time>2015-10-20T15:03:57Z</time>
      </trkpt>
      <trkpt lat="45.9794" lon="2.97828">
        <ele>615</ele>
        <time>2015-10-20T15:05:57Z</time>
      </trkpt>
      <trkpt lat="45.97979" lon="2.97855">
        <ele>616</ele>
        <time>2015-10-20T15:07:57Z</time>
      </trkpt>
      <trkpt lat="45.98014" lon="2.97902">
        <ele>621</ele>
        <time>2015-10-20T15:09:57Z</time>
      </trkpt>
      <trkpt lat="45.98043" lon="2.97934">
        <ele>621</ele>
        <time>2015-10-20T15:11:57Z</time>
      </trkpt>
      <trkpt lat="45.98068" lon="2.97942">
        <ele>618</ele>
        <time>2015-10-20T15:13:57Z</time>
      </trkpt>
      <trkpt lat="45.98084" lon="2.97934">
        <ele>615</ele>
        <time>2015-10-20T15:15:57Z</time>
      </trkpt>
      <trkpt lat="45.98104" lon="2.97922">
        <ele>614</ele>
        <time>2015-10-20T15:17:57Z</time>
      </trkpt>
      <trkpt lat="45.98117" lon="2.9798">
        <ele>617</ele>
        <time>2015-10-20T15:19:57Z</time>
      </trkpt>
      <trkpt lat="45.98148" lon="2.9802">
        <ele>618</ele>
        <time>2015-10-20T15:21:57Z</time>
      </trkpt>
      <trkpt lat="45.98178" lon="2.98063">
        <ele>620</ele>
        <time>2015-10-20T15:23:57Z</time>
      </trkpt>
      <trkpt lat="45.98189" lon="2.98084">
        <ele>622</ele>
        <time>2015-10-20T15:25:57Z</time>
      </trkpt>
      <trkpt lat="45.98204" lon="2.98114">
        <ele>624</ele>
        <time>2015-10-20T15:27:57Z</time>
      </trkpt>
      <trkpt lat="45.98226" lon="2.98184">
        <ele>628</ele>
        <time>2015-10-20T15:29:57Z</time>
      </trkpt>
      <trkpt lat="45.9824" lon="2.98194">
        <ele>628</ele>
        <time>2015-10-20T15:31:57Z</time>
      </trkpt>
      <trkpt lat="45.98257" lon="2.98206">
        <ele>629</ele>
        <time>2015-10-20T15:33:57Z</time>
      </trkpt>
      <trkpt lat="45.98267" lon="2.98222">
        <ele>630</ele>
        <time>2015-10-20T15:35:57Z</time>
      </trkpt>
      <trkpt lat="45.98301" lon="2.98256">
        <ele>633</ele>
        <time>2015-10-20T15:37:57Z</time>
      </trkpt>
      <trkpt lat="45.98351" lon="2.98284">
        <ele>635</ele>
        <time>2015-10-20T15:39:57Z</time>
      </trkpt>
      <trkpt lat="45.98377" lon="2.98316">
        <ele>637</ele>
        <time>2015-10-20T15:41:57Z</time>
      </trkpt>
      <trkpt lat="45.9837" lon="2.98355">
        <ele>638</ele>
        <time>2015-10-20T15:43:57Z</time>
      </trkpt>
      <trkpt lat="45.98348" lon="2.98431">
        <ele>638</ele>
        <time>2015-10-20T15:45:57Z</time>
      </trkpt>
      <trkpt lat="45.98332" lon="2.98494">
        <ele>638</ele>
        <time>2015-10-20T15:47:57Z</time>
      </trkpt>
      <trkpt lat="45.98316" lon="2.98543">
        <ele>638</ele>
        <time>2015-10-20T15:49:57Z</time>
      </trkpt>
      <trkpt lat="45.98303" lon="2.98574">
        <ele>638</ele>
        <time>2015-10-20T15:51:57Z</time>
      </trkpt>
      <trkpt lat="45.98288" lon="2.98621">
        <ele>639</ele>
        <time>2015-10-20T15:53:57Z</time>
      </trkpt>
      <trkpt lat="45.98265" lon="2.98609">
        <ele>638</ele>
        <time>2015-10-20T15:55:57Z</time>
      </trkpt>
      <trkpt lat="45.9824" lon="2.98606">
        <ele>637</ele>
        <time>2015-10-20T15:57:57Z</time>
      </trkpt>
      <trkpt lat="45.98224" lon="2.98608">
        <ele>636</ele>
        <time>2015-10-20T15:59:57Z</time>
      </trkpt>
      <trkpt lat="45.98218" lon="2.98665">
        <ele>636</ele>
        <time>2015-10-20T16:01:57Z</time>
      </trkpt>
      <trkpt lat="45.98232" lon="2.98667">
        <ele>637</ele>
        <time>2015-10-20T16:03:57Z</time>
      </trkpt>
      <trkpt lat="45.98246" lon="2.98671">
        <ele>639</ele>
        <time>2015-10-20T16:05:57Z</time>
      </trkpt>
      <trkpt lat="45.9826" lon="2.98673">
        <ele>639</ele>
        <time>2015-10-20T16:07:57Z</time>
      </trkpt>
      <trkpt lat="45.98289" lon="2.98695">
        <ele>641</ele>
        <time>2015-10-20T16:09:57Z</time>
      </trkpt>
      <trkpt lat="45.9832" lon="2.98725">
        <ele>643</ele>
        <time>2015-10-20T16:11:57Z</time>
      </trkpt>
      <trkpt lat="45.98333" lon="2.98742">
        <ele>645</ele>
        <time>2015-10-20T16:13:57Z</time>
      </trkpt>
      <trkpt lat="45.98358" lon="2.98768">
        <ele>647</ele>
        <time>2015-10-20T16:15:57Z</time>
      </trkpt>
      <trkpt lat="45.98388" lon="2.98804">
        <ele>651</ele>
        <time>2015-10-20T16:17:57Z</time>
      </trkpt>
      <trkpt lat="45.98418" lon="2.98831">
        <ele>656</ele>
        <time>2015-10-20T16:19:57Z</time>
      </trkpt>
      <trkpt lat="45.9844" lon="2.98864">
        <ele>657</ele>
        <time>2015-10-20T16:21:57Z</time>
      </trkpt>
      <trkpt lat="45.98451" lon="2.98941">
        <ele>660</ele>
        <time>2015-10-20T16:23:57Z</time>
      </trkpt>
      <trkpt lat="45.9845" lon="2.9897">
        <ele>661</ele>
        <time>2015-10-20T16:25:57Z</time>
      </trkpt>
      <trkpt lat="45.98437" lon="2.98993">
        <ele>660</ele>
        <time>2015-10-20T16:27:57Z</time>
      </trkpt>
      <trkpt lat="45.98428" lon="2.99001">
        <ele>659</ele>
        <time>2015-10-20T16:29:57Z</time>
      </trkpt>
      <trkpt lat="45.98413" lon="2.9903">
        <ele>658</ele>
        <time>2015-10-20T16:31:57Z</time>
      </trkpt>
      <trkpt lat="45.98404" lon="2.99064">
        <ele>658</ele>
        <time>2015-10-20T16:33:57Z</time>
      </trkpt>
      <trkpt lat="45.98403" lon="2.99086">
        <ele>659</ele>
        <time>2015-10-20T16:35:57Z</time>
      </trkpt>
      <trkpt lat="45.98394" lon="2.99122">
        <ele>659</ele>
        <time>2015-10-20T16:37:57Z</time>
      </trkpt>
      <trkpt lat="45.98388" lon="2.99138">
        <ele>659</ele>
        <time>2015-10-20T16:39:57Z</time>
      </trkpt>
      <trkpt lat="45.98366" lon="2.9917">
        <ele>653</ele>
        <time>2015-10-20T16:41:57Z</time>
      </trkpt>
      <trkpt lat="45.98365" lon="2.99196">
        <ele>654</ele>
        <time>2015-10-20T16:43:57Z</time>
      </trkpt>
      <trkpt lat="45.98351" lon="2.99214">
        <ele>649</ele>
        <time>2015-10-20T16:45:57Z</time>
      </trkpt>
      <trkpt lat="45.98341" lon="2.9923">
        <ele>646</ele>
        <time>2015-10-20T16:47:57Z</time>
      </trkpt>
      <trkpt lat="45.98326" lon="2.9925">
        <ele>643</ele>
        <time>2015-10-20T16:49:57Z</time>
      </trkpt>
      <trkpt lat="45.9833" lon="2.99268">
        <ele>645</ele>
        <time>2015-10-20T16:51:57Z</time>
      </trkpt>
      <trkpt lat="45.98321" lon="2.99276">
        <ele>645</ele>
        <time>2015-10-20T16:53:57Z</time>
      </trkpt>
      <trkpt lat="45.98307" lon="2.99304">
        <ele>645</ele>
        <time>2015-10-20T16:55:57Z</time>
      </trkpt>
      <trkpt lat="45.98297" lon="2.99313">
        <ele>643</ele>
        <time>2015-10-20T16:57:57Z</time>
      </trkpt>
      <trkpt lat="45.9829" lon="2.99344">
        <ele>644</ele>
        <time>2015-10-20T16:59:57Z</time>
      </trkpt>
      <trkpt lat="45.98274" lon="2.9937">
        <ele>643</ele>
        <time>2015-10-20T17:01:57Z</time>
      </trkpt>
      <trkpt lat="45.98263" lon="2.99391">
        <ele>642</ele>
        <time>2015-10-20T17:03:57Z</time>
      </trkpt>
      <trkpt lat="45.98245" lon="2.99416">
        <ele>640</ele>
        <time>2015-10-20T17:05:57Z</time>
      </trkpt>
      <trkpt lat="45.9823" lon="2.99432">
        <ele>643</ele>
        <time>2015-10-20T17:07:57Z</time>
      </trkpt>
      <trkpt lat="45.98218" lon="2.99444">
        <ele>644</ele>
        <time>2015-10-20T17:09:57Z</time>
      </trkpt>
      <trkpt lat="45.98188" lon="2.99459">
        <ele>645</ele>
        <time>2015-10-20T17:11:57Z</time>
      </trkpt>
      <trkpt lat="45.98173" lon="2.99466">
        <ele>645</ele>
        <time>2015-10-20T17:13:57Z</time>
      </trkpt>
      <trkpt lat="45.98143" lon="2.99478">
        <ele>646</ele>
        <time>2015-10-20T17:15:57Z</time>
      </trkpt>
      <trkpt lat="45.98128" lon="2.99491">
        <ele>647</ele>
        <time>2015-10-20T17:17:57Z</time>
      </trkpt>
      <trkpt lat="45.98116" lon="2.99502">
        <ele>648</ele>
        <time>2015-10-20T17:19:57Z</time>
      </trkpt>
      <trkpt lat="45.98087" lon="2.99522">
        <ele>650</ele>
        <time>2015-10-20T17:21:57Z</time>
      </trkpt>
      <trkpt lat="45.98056" lon="2.9953">
        <ele>651</ele>
        <time>2015-10-20T17:23:57Z</time>
      </trkpt>
      <trkpt lat="45.98034" lon="2.99525">
        <ele>649</ele>
        <time>2015-10-20T17:25:57Z</time>
      </trkpt>
      <trkpt lat="45.97993" lon="2.99522">
        <ele>648</ele>
        <time>2015-10-20T17:27:57Z</time>
      </trkpt>
      <trkpt lat="45.97958" lon="2.9952">
        <ele>652</ele>
        <time>2015-10-20T17:29:57Z</time>
      </trkpt>
      <trkpt lat="45.97931" lon="2.99494">
        <ele>648</ele>
        <time>2015-10-20T17:31:57Z</time>
      </trkpt>
      <trkpt lat="45.97895" lon="2.99478">
        <ele>652</ele>
        <time>2015-10-20T17:33:57Z</time>
      </trkpt>
      <trkpt lat="45.97865" lon="2.99458">
        <ele>654</ele>
        <time>2015-10-20T17:35:57Z</time>
      </trkpt>
      <trkpt lat="45.97853" lon="2.99444">
        <ele>654</ele>
        <time>2015-10-20T17:37:57Z</time>
      </trkpt>
      <trkpt lat="45.97842" lon="2.99418">
        <ele>650</ele>
        <time>2015-10-20T17:39:57Z</time>
      </trkpt>
      <trkpt lat="45.9783" lon="2.99399">
        <ele>649</ele>
        <time>2015-10-20T17:41:57Z</time>
      </trkpt>
      <trkpt lat="45.97814" lon="2.99379">
        <ele>652</ele>
        <time>2015-10-20T17:43:57Z</time>
      </trkpt>
      <trkpt lat="45.97788" lon="2.99346">
        <ele>657</ele>
        <time>2015-10-20T17:45:57Z</time>
      </trkpt>
      <trkpt lat="45.97769" lon="2.99338">
        <ele>664</ele>
        <time>2015-10-20T17:47:57Z</time>
      </trkpt>
      <trkpt lat="45.97767" lon="2.99346">
        <ele>666</ele>
        <time>2015-10-20T17:49:57Z</time>
      </trkpt>
      <trkpt lat="45.97759" lon="2.9934">
        <ele>669</ele>
        <time>2015-10-20T17:51:57Z</time>
      </trkpt>
      <trkpt lat="45.97738" lon="2.99324">
        <ele>674</ele>
        <time>2015-10-20T17:53:57Z</time>
      </trkpt>
      <trkpt lat="45.97736" lon="2.99294">
        <ele>670</ele>
        <time>2015-10-20T17:55:57Z</time>
      </trkpt>
      <trkpt lat="45.97718" lon="2.99262">
        <ele>671</ele>
        <time>2015-10-20T17:57:57Z</time>
      </trkpt>
      <trkpt lat="45.97717" lon="2.99223">
        <ele>668</ele>
        <time>2015-10-20T17:59:57Z</time>
      </trkpt>
      <trkpt lat="45.97722" lon="2.99174">
        <ele>664</ele>
        <time>2015-10-20T18:01:57Z</time>
      </trkpt>
      <trkpt lat="45.97723" lon="2.99124">
        <ele>662</ele>
        <time>2015-10-20T18:03:57Z</time>
      </trkpt>
      <trkpt lat="45.97727" lon="2.99081">
        <ele>660</ele>
        <time>2015-10-20T18:05:57Z</time>
      </trkpt>
      <trkpt lat="45.97735" lon="2.99066">
        <ele>658</ele>
        <time>2015-10-20T18:07:57Z</time>
      </trkpt>
      <trkpt lat="45.97742" lon="2.99051">
        <ele>655</ele>
        <time>2015-10-20T18:09:57Z</time>
      </trkpt>
      <trkpt lat="45.97748" lon="2.99038">
        <ele>653</ele>
        <time>2015-10-20T18:11:57Z</time>
      </trkpt>
      <trkpt lat="45.97764" lon="2.99006">
        <ele>648</ele>
        <time>2015-10-20T18:13:57Z</time>
      </trkpt>
      <trkpt lat="45.9777" lon="2.98998">
        <ele>647</ele>
        <time>2015-10-20T18:15:57Z</time>
      </trkpt>
      <trkpt lat="45.97773" lon="2.98987">
        <ele>646</ele>
        <time>2015-10-20T18:17:57Z</time>
      </trkpt>
      <trkpt lat="45.97769" lon="2.98958">
        <ele>646</ele>
        <time>2015-10-20T18:19:57Z</time>
      </trkpt>
      <trkpt lat="45.97773" lon="2.98941">
        <ele>644</ele>
        <time>2015-10-20T18:21:57Z</time>
      </trkpt>
      <trkpt lat="45.97777" lon="2.98932">
        <ele>644</ele>
        <time>2015-10-20T18:23:57Z</time>
      </trkpt>
      <trkpt lat="45.97793" lon="2.98913">
        <ele>641</ele>
        <time>2015-10-20T18:25:57Z</time>
      </trkpt>
      <trkpt lat="45.97798" lon="2.98907">
        <ele>640</ele>
        <time>2015-10-20T18:27:57Z</time>
      </trkpt>
      <trkpt lat="45.978" lon="2.98898">
        <ele>641</ele>
        <time>2015-10-20T18:29:57Z</time>
      </trkpt>
      <trkpt lat="45.97811" lon="2.98846">
        <ele>646</ele>
        <time>2015-10-20T18:31:57Z</time>
      </trkpt>
      <trkpt lat="45.9782" lon="2.98841">
        <ele>645</ele>
        <time>2015-10-20T18:33:57Z</time>
      </trkpt>
      <trkpt lat="45.9783" lon="2.9883">
        <ele>646</ele>
        <time>2015-10-20T18:35:57Z</time>
      </trkpt>
      <trkpt lat="45.97841" lon="2.9882">
        <ele>645</ele>
        <time>2015-10-20T18:37:57Z</time>
      </trkpt>
      <trkpt lat="45.97846" lon="2.98809">
        <ele>646</ele>
        <time>2015-10-20T18:39:57Z</time>
      </trkpt>
      <trkpt lat="45.97852" lon="2.98791">
        <ele>647</ele>
        <time>2015-10-20T18:41:57Z</time>
      </trkpt>
      <trkpt lat="45.97861" lon="2.98777">
        <ele>648</ele>
        <time>2015-10-20T18:43:57Z</time>
      </trkpt>
      <trkpt lat="45.97885" lon="2.9875">
        <ele>650</ele>
        <time>2015-10-20T18:45:57Z</time>
      </trkpt>
      <trkpt lat="45.97893" lon="2.98742">
        <ele>649</ele>
        <time>2015-10-20T18:47:57Z</time>
      </trkpt>
      <trkpt lat="45.97904" lon="2.98735">
        <ele>649</ele>
        <time>2015-10-20T18:49:57Z</time>
      </trkpt>
      <trkpt lat="45.97917" lon="2.98724">
        <ele>649</ele>
        <time>2015-10-20T18:51:57Z</time>
      </trkpt>
      <trkpt lat="45.97929" lon="2.98715">
        <ele>647</ele>
        <time>2015-10-20T18:53:57Z</time>
      </trkpt>
      <trkpt lat="45.97961" lon="2.98695">
        <ele>645</ele>
        <time>2015-10-20T18:55:57Z</time>
      </trkpt>
      <trkpt lat="45.97981" lon="2.98686">
        <ele>644</ele>
        <time>2015-10-20T18:57:57Z</time>
      </trkpt>
      <trkpt lat="45.97999" lon="2.98674">
        <ele>643</ele>
        <time>2015-10-20T18:59:57Z</time>
      </trkpt>
      <trkpt lat="45.98029" lon="2.98666">
        <ele>641</ele>
        <time>2015-10-20T19:01:57Z</time>
      </trkpt>
      <trkpt lat="45.98076" lon="2.98665">
        <ele>636</ele>
        <time>2015-10-20T19:03:57Z</time>
      </trkpt>
      <trkpt lat="45.98093" lon="2.98668">
        <ele>635</ele>
        <time>2015-10-20T19:05:57Z</time>
      </trkpt>
      <trkpt lat="45.98128" lon="2.98674">
        <ele>633</ele>
        <time>2015-10-20T19:07:57Z</time>
      </trkpt>
      <trkpt lat="45.98171" lon="2.98674">
        <ele>632</ele>
        <time>2015-10-20T19:09:57Z</time>
      </trkpt>
      <trkpt lat="45.98192" lon="2.98671">
        <ele>634</ele>
        <time>2015-10-20T19:11:57Z</time>
      </trkpt>
      <trkpt lat="45.98209" lon="2.98671">
        <ele>636</ele>
        <time>2015-10-20T19:13:57Z</time>
      </trkpt>
    </trkseg>
  </trk>
</gpx>